Wetterdaten: Dienstag, 28.07.2015
Datum Zeit Temp. Aussen +5cm Feuchte Auss BlattFeu 1 Luftdruck Regen Sonnenschein Regendauer Solar Windben
28.07.2015 00:00 15,4 C 13,3 C 77 % 0 lf 1004,0 hPa 0,0 l/m 0 min 0 min 0 W/m 16,7 km/h (3 Bft)
28.07.2015 00:02 15,4 C 13,9 C 77 % 0 lf 1004,0 hPa 0,0 l/m 0 min 0 min 0 W/m 16,7 km/h (3 Bft)
28.07.2015 00:05 15,4 C 13,9 C 78 % 0 lf 1004,1 hPa 0,0 l/m 0 min 0 min 0 W/m 23,0 km/h (4 Bft)
28.07.2015 00:06 15,4 C 13,9 C 78 % 0 lf 1004,1 hPa 0,0 l/m 0 min 0 min 0 W/m 23,0 km/h (4 Bft)
28.07.2015 00:08 15,4 C 13,9 C 78 % 0 lf 1004,2 hPa 0,0 l/m 0 min 0 min 0 W/m 18,8 km/h (3 Bft)
28.07.2015 00:10 15,4 C 13,9 C 78 % 0 lf 1004,1 hPa 0,0 l/m 0 min 0 min 0 W/m 20,9 km/h (4 Bft)
28.07.2015 00:12 15,4 C 13,9 C 78 % 0 lf 1004,1 hPa 0,0 l/m 0 min 0 min 0 W/m 20,9 km/h (4 Bft)
28.07.2015 00:14 15,4 C 13,9 C 78 % 0 lf 1004,1 hPa 0,0 l/m 0 min 0 min 0 W/m 18,8 km/h (3 Bft)
28.07.2015 00:16 15,4 C 13,9 C 78 % 0 lf 1004,2 hPa 0,0 l/m 0 min 0 min 0 W/m 23,0 km/h (4 Bft)
28.07.2015 00:18 15,4 C 13,9 C 78 % 0 lf 1004,2 hPa 0,0 l/m 0 min 0 min 0 W/m 23,0 km/h (4 Bft)
28.07.2015 00:20 15,4 C 13,9 C 78 % 0 lf 1004,2 hPa 0,0 l/m 0 min 0 min 0 W/m 20,9 km/h (4 Bft)
28.07.2015 00:22 15,3 C 13,9 C 78 % 0 lf 1004,2 hPa 0,0 l/m 0 min 0 min 0 W/m 16,7 km/h (3 Bft)
28.07.2015 00:24 15,3 C 13,9 C 78 % 0 lf 1004,2 hPa 0,0 l/m 0 min 0 min 0 W/m 16,7 km/h (3 Bft)
28.07.2015 00:26 15,3 C 13,9 C 78 % 0 lf 1004,2 hPa 0,0 l/m 0 min 0 min 0 W/m 16,7 km/h (3 Bft)
28.07.2015 00:28 15,3 C 13,9 C 78 % 0 lf 1004,2 hPa 0,0 l/m 0 min 0 min 0 W/m 14,6 km/h (3 Bft)
28.07.2015 00:30 15,3 C 13,9 C 78 % 0 lf 1004,2 hPa 0,0 l/m 0 min 0 min 0 W/m 27,2 km/h (4 Bft)
28.07.2015 00:32 15,2 C 13,9 C 78 % 0 lf 1004,2 hPa 0,0 l/m 0 min 0 min 0 W/m 23,0 km/h (4 Bft)
28.07.2015 00:34 15,2 C 13,3 C 78 % 0 lf 1004,2 hPa 0,0 l/m 0 min 0 min 0 W/m 20,9 km/h (4 Bft)
28.07.2015 00:36 15,2 C 13,3 C 78 % 0 lf 1004,2 hPa 0,0 l/m 0 min 0 min 0 W/m 16,7 km/h (3 Bft)
28.07.2015 00:38 15,2 C 13,3 C 78 % 0 lf 1004,2 hPa 0,0 l/m 0 min 0 min 0 W/m 27,2 km/h (4 Bft)
28.07.2015 00:40 15,2 C 13,3 C 77 % 0 lf 1004,2 hPa 0,0 l/m 0 min 0 min 0 W/m 14,6 km/h (3 Bft)
28.07.2015 00:42 15,1 C 13,3 C 77 % 0 lf 1004,1 hPa 0,0 l/m 0 min 0 min 0 W/m 18,8 km/h (3 Bft)
28.07.2015 00:44 15,1 C 13,3 C 77 % 0 lf 1004,2 hPa 0,0 l/m 0 min 0 min 0 W/m 18,8 km/h (3 Bft)
28.07.2015 00:46 15,1 C 13,3 C 77 % 0 lf 1004,1 hPa 0,0 l/m 0 min 0 min 0 W/m 18,8 km/h (3 Bft)
28.07.2015 00:48 15,1 C 13,3 C 77 % 0 lf 1004,1 hPa 0,0 l/m 0 min 0 min 0 W/m 16,7 km/h (3 Bft)
28.07.2015 00:50 15,0 C 13,3 C 77 % 0 lf 1004,1 hPa 0,0 l/m 0 min 0 min 0 W/m 14,6 km/h (3 Bft)
28.07.2015 00:52 14,9 C 13,3 C 77 % 0 lf 1004,2 hPa 0,0 l/m 0 min 0 min 0 W/m 18,8 km/h (3 Bft)
28.07.2015 00:54 14,9 C 13,3 C 77 % 0 lf 1004,1 hPa 0,0 l/m 0 min 0 min 0 W/m 20,9 km/h (4 Bft)
28.07.2015 00:56 14,9 C 13,3 C 77 % 0 lf 1004,2 hPa 0,0 l/m 0 min 0 min 0 W/m 20,9 km/h (4 Bft)
28.07.2015 00:58 14,9 C 13,3 C 77 % 0 lf 1004,2 hPa 0,0 l/m 0 min 0 min 0 W/m 20,9 km/h (4 Bft)
28.07.2015 01:00 14,8 C 13,3 C 77 % 0 lf 1004,2 hPa 0,0 l/m 0 min 0 min 0 W/m 29,3 km/h (5 Bft)
28.07.2015 01:02 14,8 C 13,3 C 77 % 0 lf 1004,1 hPa 0,0 l/m 0 min 0 min 0 W/m 18,8 km/h (3 Bft)
28.07.2015 01:04 14,8 C 13,3 C 77 % 0 lf 1004,2 hPa 0,0 l/m 0 min 0 min 0 W/m 18,8 km/h (3 Bft)
28.07.2015 01:06 14,8 C 13,3 C 77 % 0 lf 1004,1 hPa 0,0 l/m 0 min 0 min 0 W/m 23,0 km/h (4 Bft)
28.07.2015 01:08 14,7 C 13,3 C 77 % 0 lf 1004,1 hPa 0,0 l/m 0 min 0 min 0 W/m 14,6 km/h (3 Bft)
28.07.2015 01:10 14,7 C 12,8 C 77 % 0 lf 1004,1 hPa 0,0 l/m 0 min 0 min 0 W/m 18,8 km/h (3 Bft)
28.07.2015 01:12 14,7 C 12,8 C 77 % 0 lf 1004,1 hPa 0,0 l/m 0 min 0 min 0 W/m 20,9 km/h (4 Bft)
28.07.2015 01:14 14,7 C 12,8 C 77 % 0 lf 1004,1 hPa 0,0 l/m 0 min 0 min 0 W/m 16,7 km/h (3 Bft)
28.07.2015 01:16 14,6 C 12,8 C 77 % 0 lf 1004,1 hPa 0,0 l/m 0 min 0 min 0 W/m 20,9 km/h (4 Bft)
28.07.2015 01:18 14,6 C 12,8 C 77 % 0 lf 1004,1 hPa 0,0 l/m 0 min 0 min 0 W/m 18,8 km/h (3 Bft)
28.07.2015 01:20 14,6 C 12,8 C 77 % 0 lf 1004,0 hPa 0,0 l/m 0 min 0 min 0 W/m 14,6 km/h (3 Bft)
28.07.2015 01:22 14,6 C 12,8 C 77 % 0 lf 1004,1 hPa 0,0 l/m 0 min 0 min 0 W/m 12,6 km/h (3 Bft)
28.07.2015 01:24 14,5 C 12,8 C 77 % 0 lf 1004,1 hPa 0,0 l/m 0 min 0 min 0 W/m 14,6 km/h (3 Bft)
28.07.2015 01:26 14,5 C 12,8 C 77 % 0 lf 1004,1 hPa 0,0 l/m 0 min 0 min 0 W/m 20,9 km/h (4 Bft)
28.07.2015 01:28 14,4 C 12,8 C 77 % 0 lf 1004,1 hPa 0,0 l/m 0 min 0 min 0 W/m 20,9 km/h (4 Bft)
28.07.2015 01:30 14,4 C 12,8 C 77 % 0 lf 1004,1 hPa 0,0 l/m 0 min 0 min 0 W/m 23,0 km/h (4 Bft)
28.07.2015 01:32 14,4 C 12,8 C 77 % 0 lf 1004,0 hPa 0,0 l/m 0 min 0 min 0 W/m 16,7 km/h (3 Bft)
28.07.2015 01:34 14,4 C 12,8 C 77 % 0 lf 1004,0 hPa 0,0 l/m 0 min 0 min 0 W/m 29,3 km/h (5 Bft)
28.07.2015 01:36 14,4 C 12,8 C 77 % 0 lf 1004,0 hPa 0,0 l/m 0 min 0 min 0 W/m 18,8 km/h (3 Bft)
28.07.2015 01:38 14,3 C 12,8 C 78 % 0 lf 1004,0 hPa 0,0 l/m 0 min 0 min 0 W/m 18,8 km/h (3 Bft)
28.07.2015 01:40 14,3 C 12,8 C 78 % 0 lf 1004,0 hPa 0,0 l/m 0 min 0 min 0 W/m 25,1 km/h (4 Bft)
28.07.2015 01:42 14,3 C 12,8 C 78 % 0 lf 1004,0 hPa 0,0 l/m 0 min 0 min 0 W/m 20,9 km/h (4 Bft)
28.07.2015 01:44 14,3 C 12,8 C 78 % 0 lf 1004,0 hPa 0,0 l/m 0 min 0 min 0 W/m 18,8 km/h (3 Bft)
28.07.2015 01:46 14,3 C 12,8 C 78 % 0 lf 1003,9 hPa 0,0 l/m 0 min 0 min 0 W/m 23,0 km/h (4 Bft)
28.07.2015 01:48 14,2 C 12,8 C 78 % 0 lf 1004,0 hPa 0,0 l/m 0 min 0 min 0 W/m 12,6 km/h (3 Bft)
28.07.2015 01:50 14,2 C 12,8 C 78 % 0 lf 1004,0 hPa 0,0 l/m 0 min 0 min 0 W/m 18,8 km/h (3 Bft)
28.07.2015 01:52 14,2 C 12,8 C 78 % 0 lf 1004,0 hPa 0,0 l/m 0 min 0 min 0 W/m 18,8 km/h (3 Bft)
28.07.2015 01:54 14,2 C 12,8 C 78 % 0 lf 1004,0 hPa 0,0 l/m 0 min 0 min 0 W/m 20,9 km/h (4 Bft)
28.07.2015 01:56 14,2 C 12,8 C 78 % 0 lf 1004,0 hPa 0,0 l/m 0 min 0 min 0 W/m 20,9 km/h (4 Bft)
28.07.2015 01:58 14,2 C 12,8 C 78 % 0 lf 1004,0 hPa 0,0 l/m 0 min 0 min 0 W/m 18,8 km/h (3 Bft)
28.07.2015 02:00 14,2 C 12,8 C 79 % 0 lf 1004,0 hPa 0,0 l/m 0 min 0 min 0 W/m 20,9 km/h (4 Bft)
28.07.2015 02:02 14,2 C 12,8 C 79 % 0 lf 1003,9 hPa 0,0 l/m 0 min 0 min 0 W/m 23,0 km/h (4 Bft)
28.07.2015 02:04 14,2 C 12,8 C 79 % 0 lf 1003,9 hPa 0,0 l/m 0 min 0 min 0 W/m 16,7 km/h (3 Bft)
28.07.2015 02:06 14,2 C 12,8 C 79 % 0 lf 1003,9 hPa 0,0 l/m 0 min 0 min 0 W/m 18,8 km/h (3 Bft)
28.07.2015 02:08 14,2 C 12,8 C 79 % 0 lf 1004,0 hPa 0,0 l/m 0 min 0 min 0 W/m 18,8 km/h (3 Bft)
28.07.2015 02:10 14,2 C 12,8 C 79 % 0 lf 1003,9 hPa 0,0 l/m 0 min 0 min 0 W/m 25,1 km/h (4 Bft)
28.07.2015 02:12 14,2 C 12,8 C 79 % 0 lf 1003,8 hPa 0,0 l/m 0 min 0 min 0 W/m 16,7 km/h (3 Bft)
28.07.2015 02:14 14,2 C 12,8 C 79 % 0 lf 1003,9 hPa 0,0 l/m 0 min 0 min 0 W/m 20,9 km/h (4 Bft)
28.07.2015 02:16 14,1 C 12,8 C 79 % 0 lf 1003,9 hPa 0,0 l/m 0 min 0 min 0 W/m 23,0 km/h (4 Bft)
28.07.2015 02:18 14,1 C 12,8 C 79 % 0 lf 1004,0 hPa 0,0 l/m 0 min 0 min 0 W/m 25,1 km/h (4 Bft)
28.07.2015 02:20 14,1 C 12,8 C 79 % 0 lf 1004,0 hPa 0,0 l/m 0 min 0 min 0 W/m 20,9 km/h (4 Bft)
28.07.2015 02:22 14,1 C 12,8 C 79 % 0 lf 1003,9 hPa 0,0 l/m 0 min 0 min 0 W/m 18,8 km/h (3 Bft)
28.07.2015 02:24 14,0 C 12,8 C 79 % 0 lf 1004,0 hPa 0,0 l/m 0 min 0 min 0 W/m 25,1 km/h (4 Bft)
28.07.2015 02:26 14,0 C 12,2 C 79 % 0 lf 1004,0 hPa 0,0 l/m 0 min 0 min 0 W/m 16,7 km/h (3 Bft)
28.07.2015 02:28 14,0 C 12,2 C 79 % 0 lf 1004,0 hPa 0,0 l/m 0 min 0 min 0 W/m 23,0 km/h (4 Bft)
28.07.2015 02:30 13,9 C 12,8 C 79 % 0 lf 1004,0 hPa 0,0 l/m 0 min 0 min 0 W/m 25,1 km/h (4 Bft)
28.07.2015 02:32 13,9 C 12,8 C 79 % 0 lf 1004,0 hPa 0,0 l/m 0 min 0 min 0 W/m 20,9 km/h (4 Bft)
28.07.2015 02:34 13,9 C 12,8 C 79 % 0 lf 1004,0 hPa 0,0 l/m 0 min 0 min 0 W/m 25,1 km/h (4 Bft)
28.07.2015 02:36 13,9 C 12,8 C 79 % 0 lf 1003,9 hPa 0,0 l/m 0 min 0 min 0 W/m 25,1 km/h (4 Bft)
28.07.2015 02:38 13,9 C 12,8 C 80 % 0 lf 1004,0 hPa 0,0 l/m 0 min 0 min 0 W/m 25,1 km/h (4 Bft)
28.07.2015 02:40 13,9 C 12,8 C 80 % 0 lf 1003,9 hPa 0,0 l/m 0 min 0 min 0 W/m 29,3 km/h (5 Bft)
28.07.2015 02:42 13,9 C 12,8 C 80 % 0 lf 1004,0 hPa 0,0 l/m 0 min 0 min 0 W/m 31,4 km/h (5 Bft)
28.07.2015 02:44 13,9 C 12,8 C 80 % 0 lf 1003,9 hPa 0,0 l/m 0 min 0 min 0 W/m 20,9 km/h (4 Bft)
28.07.2015 02:46 13,9 C 12,2 C 80 % 0 lf 1004,0 hPa 0,0 l/m 0 min 0 min 0 W/m 31,4 km/h (5 Bft)
28.07.2015 02:48 13,9 C 12,2 C 80 % 0 lf 1003,9 hPa 0,0 l/m 0 min 0 min 0 W/m 25,1 km/h (4 Bft)
28.07.2015 02:50 13,9 C 12,2 C 80 % 0 lf 1003,9 hPa 0,0 l/m 0 min 0 min 0 W/m 25,1 km/h (4 Bft)
28.07.2015 02:52 13,9 C 12,2 C 80 % 0 lf 1004,0 hPa 0,0 l/m 0 min 0 min 0 W/m 29,3 km/h (5 Bft)
28.07.2015 02:54 13,9 C 12,2 C 80 % 0 lf 1004,0 hPa 0,0 l/m 0 min 0 min 0 W/m 14,6 km/h (3 Bft)
28.07.2015 02:56 13,8 C 12,2 C 80 % 0 lf 1004,0 hPa 0,0 l/m 0 min 0 min 0 W/m 16,7 km/h (3 Bft)
28.07.2015 02:58 13,8 C 12,2 C 80 % 0 lf 1004,0 hPa 0,0 l/m 0 min 0 min 0 W/m 20,9 km/h (4 Bft)
28.07.2015 03:00 13,8 C 12,2 C 80 % 0 lf 1004,0 hPa 0,0 l/m 0 min 0 min 0 W/m 18,8 km/h (3 Bft)
28.07.2015 03:02 13,8 C 12,2 C 80 % 0 lf 1004,0 hPa 0,0 l/m 0 min 0 min 0 W/m 18,8 km/h (3 Bft)
28.07.2015 03:04 13,8 C 12,2 C 80 % 0 lf 1003,9 hPa 0,0 l/m 0 min 0 min 0 W/m 20,9 km/h (4 Bft)
28.07.2015 03:06 13,8 C 12,2 C 81 % 0 lf 1004,0 hPa 0,0 l/m 0 min 0 min 0 W/m 14,6 km/h (3 Bft)
28.07.2015 03:08 13,7 C 12,2 C 81 % 0 lf 1004,0 hPa 0,0 l/m 0 min 0 min 0 W/m 27,2 km/h (4 Bft)
28.07.2015 03:10 13,7 C 12,2 C 81 % 0 lf 1004,0 hPa 0,0 l/m 0 min 0 min 0 W/m 14,6 km/h (3 Bft)
28.07.2015 03:12 13,7 C 12,2 C 81 % 0 lf 1004,0 hPa 0,0 l/m 0 min 0 min 0 W/m 14,6 km/h (3 Bft)
28.07.2015 03:14 13,7 C 12,2 C 81 % 0 lf 1003,9 hPa 0,0 l/m 0 min 0 min 0 W/m 23,0 km/h (4 Bft)
28.07.2015 03:16 13,7 C 12,2 C 81 % 0 lf 1003,9 hPa 0,0 l/m 0 min 0 min 0 W/m 18,8 km/h (3 Bft)
28.07.2015 03:18 13,6 C 12,2 C 81 % 0 lf 1003,9 hPa 0,0 l/m 0 min 0 min 0 W/m 14,6 km/h (3 Bft)
28.07.2015 03:20 13,6 C 12,2 C 81 % 0 lf 1003,9 hPa 0,0 l/m 0 min 0 min 0 W/m 18,8 km/h (3 Bft)
28.07.2015 03:22 13,6 C 12,2 C 81 % 0 lf 1003,9 hPa 0,0 l/m 0 min 0 min 0 W/m 18,8 km/h (3 Bft)
28.07.2015 03:24 13,6 C 12,2 C 81 % 0 lf 1003,9 hPa 0,0 l/m 0 min 0 min 0 W/m 25,1 km/h (4 Bft)
28.07.2015 03:26 13,5 C 12,2 C 81 % 0 lf 1003,9 hPa 0,0 l/m 0 min 0 min 0 W/m 27,2 km/h (4 Bft)
28.07.2015 03:28 13,5 C 12,2 C 81 % 0 lf 1003,9 hPa 0,0 l/m 0 min 0 min 0 W/m 18,8 km/h (3 Bft)
28.07.2015 03:30 13,5 C 12,2 C 81 % 0 lf 1003,9 hPa 0,0 l/m 0 min 0 min 0 W/m 27,2 km/h (4 Bft)
28.07.2015 03:32 13,5 C 12,2 C 82 % 0 lf 1003,9 hPa 0,0 l/m 0 min 0 min 0 W/m 25,1 km/h (4 Bft)
28.07.2015 03:34 13,4 C 12,2 C 82 % 0 lf 1003,9 hPa 0,0 l/m 0 min 0 min 0 W/m 18,8 km/h (3 Bft)
28.07.2015 03:36 13,4 C 12,2 C 82 % 0 lf 1004,0 hPa 0,0 l/m 0 min 0 min 0 W/m 16,7 km/h (3 Bft)
28.07.2015 03:38 13,4 C 12,2 C 82 % 0 lf 1004,0 hPa 0,0 l/m 0 min 0 min 0 W/m 12,6 km/h (3 Bft)
28.07.2015 03:40 13,4 C 12,2 C 82 % 0 lf 1003,9 hPa 0,0 l/m 0 min 0 min 0 W/m 18,8 km/h (3 Bft)
28.07.2015 03:42 13,4 C 12,2 C 82 % 0 lf 1003,9 hPa 0,0 l/m 0 min 0 min 0 W/m 23,0 km/h (4 Bft)
28.07.2015 03:44 13,4 C 12,2 C 81 % 0 lf 1003,9 hPa 0,0 l/m 0 min 0 min 0 W/m 16,7 km/h (3 Bft)
28.07.2015 03:46 13,4 C 12,2 C 81 % 0 lf 1003,9 hPa 0,0 l/m 0 min 0 min 0 W/m 18,8 km/h (3 Bft)
28.07.2015 03:48 13,4 C 12,2 C 81 % 0 lf 1003,9 hPa 0,0 l/m 0 min 0 min 0 W/m 14,6 km/h (3 Bft)
28.07.2015 03:50 13,3 C 12,2 C 82 % 0 lf 1003,9 hPa 0,0 l/m 0 min 0 min 0 W/m 23,0 km/h (4 Bft)
28.07.2015 03:52 13,3 C 11,7 C 82 % 0 lf 1003,9 hPa 0,0 l/m 0 min 0 min 0 W/m 27,2 km/h (4 Bft)
28.07.2015 03:54 13,3 C 12,2 C 82 % 0 lf 1003,9 hPa 0,0 l/m 0 min 0 min 0 W/m 14,6 km/h (3 Bft)
28.07.2015 03:56 13,3 C 11,7 C 82 % 0 lf 1003,8 hPa 0,0 l/m 0 min 0 min 0 W/m 16,7 km/h (3 Bft)
28.07.2015 03:58 13,3 C 11,7 C 82 % 0 lf 1003,8 hPa 0,0 l/m 0 min 0 min 0 W/m 16,7 km/h (3 Bft)
28.07.2015 04:00 13,3 C 11,7 C 82 % 0 lf 1003,9 hPa 0,0 l/m 0 min 0 min 0 W/m 18,8 km/h (3 Bft)
28.07.2015 04:02 13,2 C 11,7 C 82 % 0 lf 1003,8 hPa 0,0 l/m 0 min 0 min 0 W/m 16,7 km/h (3 Bft)
28.07.2015 04:04 13,2 C 11,7 C 82 % 0 lf 1003,8 hPa 0,0 l/m 0 min 0 min 0 W/m 18,8 km/h (3 Bft)
28.07.2015 04:06 13,2 C 11,7 C 82 % 0 lf 1003,9 hPa 0,0 l/m 0 min 0 min 0 W/m 23,0 km/h (4 Bft)
28.07.2015 04:08 13,2 C 11,7 C 82 % 0 lf 1003,9 hPa 0,0 l/m 0 min 0 min 0 W/m 23,0 km/h (4 Bft)
28.07.2015 04:10 13,2 C 11,7 C 82 % 0 lf 1003,9 hPa 0,0 l/m 0 min 0 min 0 W/m 18,8 km/h (3 Bft)
28.07.2015 04:12 13,2 C 11,7 C 83 % 0 lf 1003,9 hPa 0,0 l/m 0 min 0 min 0 W/m 14,6 km/h (3 Bft)
28.07.2015 04:14 13,2 C 11,7 C 83 % 0 lf 1003,8 hPa 0,0 l/m 0 min 0 min 0 W/m 29,3 km/h (5 Bft)
28.07.2015 04:16 13,1 C 11,7 C 83 % 0 lf 1003,8 hPa 0,0 l/m 0 min 0 min 0 W/m 27,2 km/h (4 Bft)
28.07.2015 04:18 13,1 C 11,7 C 83 % 0 lf 1003,9 hPa 0,0 l/m 0 min 0 min 0 W/m 20,9 km/h (4 Bft)
28.07.2015 04:20 13,1 C 11,7 C 83 % 0 lf 1003,9 hPa 0,0 l/m 0 min 0 min 0 W/m 20,9 km/h (4 Bft)
28.07.2015 04:22 13,1 C 11,7 C 83 % 0 lf 1003,9 hPa 0,0 l/m 0 min 0 min 0 W/m 16,7 km/h (3 Bft)
28.07.2015 04:24 13,1 C 11,7 C 83 % 0 lf 1003,9 hPa 0,0 l/m 0 min 0 min 0 W/m 16,7 km/h (3 Bft)
28.07.2015 04:26 13,1 C 11,7 C 83 % 0 lf 1003,8 hPa 0,0 l/m 0 min 0 min 0 W/m 20,9 km/h (4 Bft)
28.07.2015 04:28 13,1 C 11,7 C 83 % 0 lf 1003,9 hPa 0,0 l/m 0 min 0 min 0 W/m 27,2 km/h (4 Bft)
28.07.2015 04:30 13,0 C 11,7 C 84 % 0 lf 1003,8 hPa 0,0 l/m 0 min 0 min 0 W/m 16,7 km/h (3 Bft)
28.07.2015 04:32 13,0 C 11,7 C 84 % 0 lf 1003,8 hPa 0,0 l/m 0 min 0 min 0 W/m 20,9 km/h (4 Bft)
28.07.2015 04:34 13,0 C 11,7 C 84 % 0 lf 1003,8 hPa 0,0 l/m 0 min 0 min 0 W/m 16,7 km/h (3 Bft)
28.07.2015 04:36 13,0 C 11,7 C 84 % 0 lf 1003,8 hPa 0,0 l/m 0 min 0 min 0 W/m 20,9 km/h (4 Bft)
28.07.2015 04:38 12,9 C 11,7 C 84 % 0 lf 1003,8 hPa 0,0 l/m 0 min 0 min 0 W/m 20,9 km/h (4 Bft)
28.07.2015 04:40 12,9 C 11,7 C 84 % 0 lf 1003,8 hPa 0,0 l/m 0 min 0 min 0 W/m 25,1 km/h (4 Bft)
28.07.2015 04:42 12,9 C 11,7 C 84 % 0 lf 1003,9 hPa 0,0 l/m 0 min 0 min 0 W/m 16,7 km/h (3 Bft)
28.07.2015 04:44 12,9 C 11,7 C 84 % 0 lf 1003,8 hPa 0,0 l/m 0 min 0 min 0 W/m 20,9 km/h (4 Bft)
28.07.2015 04:46 12,9 C 11,7 C 84 % 0 lf 1003,9 hPa 0,0 l/m 0 min 0 min 0 W/m 16,7 km/h (3 Bft)
28.07.2015 04:48 12,9 C 11,7 C 84 % 0 lf 1003,8 hPa 0,0 l/m 0 min 0 min 0 W/m 23,0 km/h (4 Bft)
28.07.2015 04:50 12,8 C 11,7 C 84 % 0 lf 1003,8 hPa 0,0 l/m 0 min 0 min 0 W/m 14,6 km/h (3 Bft)
28.07.2015 04:52 12,8 C 11,7 C 84 % 0 lf 1003,8 hPa 0,0 l/m 0 min 0 min 0 W/m 16,7 km/h (3 Bft)
28.07.2015 04:54 12,8 C 11,7 C 85 % 0 lf 1003,8 hPa 0,0 l/m 0 min 0 min 0 W/m 16,7 km/h (3 Bft)
28.07.2015 04:56 12,8 C 11,7 C 85 % 0 lf 1003,8 hPa 0,0 l/m 0 min 0 min 0 W/m 16,7 km/h (3 Bft)
28.07.2015 04:58 12,8 C 11,7 C 85 % 0 lf 1003,8 hPa 0,0 l/m 0 min 0 min 0 W/m 16,7 km/h (3 Bft)
28.07.2015 05:00 12,8 C 11,7 C 85 % 0 lf 1003,8 hPa 0,0 l/m 0 min 0 min 0 W/m 23,0 km/h (4 Bft)
28.07.2015 05:02 12,7 C 11,7 C 85 % 0 lf 1003,8 hPa 0,0 l/m 0 min 0 min 0 W/m 20,9 km/h (4 Bft)
28.07.2015 05:04 12,7 C 11,7 C 85 % 0 lf 1003,8 hPa 0,0 l/m 0 min 0 min 0 W/m 20,9 km/h (4 Bft)
28.07.2015 05:06 12,7 C 11,7 C 85 % 0 lf 1003,8 hPa 0,0 l/m 0 min 0 min 0 W/m 18,8 km/h (3 Bft)
28.07.2015 05:08 12,7 C 11,7 C 85 % 0 lf 1003,8 hPa 0,0 l/m 0 min 0 min 0 W/m 23,0 km/h (4 Bft)
28.07.2015 05:10 12,7 C 11,7 C 85 % 0 lf 1003,8 hPa 0,0 l/m 0 min 0 min 0 W/m 16,7 km/h (3 Bft)
28.07.2015 05:12 12,7 C 11,7 C 85 % 0 lf 1003,7 hPa 0,0 l/m 0 min 0 min 0 W/m 29,3 km/h (5 Bft)
28.07.2015 05:14 12,7 C 11,7 C 85 % 0 lf 1003,8 hPa 0,0 l/m 0 min 0 min 0 W/m 18,8 km/h (3 Bft)
28.07.2015 05:16 12,7 C 11,7 C 85 % 0 lf 1003,7 hPa 0,0 l/m 0 min 0 min 0 W/m 25,1 km/h (4 Bft)
28.07.2015 05:18 12,7 C 11,7 C 85 % 0 lf 1003,8 hPa 0,0 l/m 0 min 0 min 0 W/m 16,7 km/h (3 Bft)
28.07.2015 05:20 12,7 C 11,7 C 85 % 0 lf 1003,7 hPa 0,0 l/m 0 min 0 min 0 W/m 23,0 km/h (4 Bft)
28.07.2015 05:22 12,7 C 11,7 C 85 % 0 lf 1003,7 hPa 0,0 l/m 0 min 0 min 0 W/m 20,9 km/h (4 Bft)
28.07.2015 05:24 12,7 C 11,7 C 85 % 0 lf 1003,7 hPa 0,0 l/m 0 min 0 min 0 W/m 20,9 km/h (4 Bft)
28.07.2015 05:26 12,7 C 11,7 C 85 % 0 lf 1003,7 hPa 0,0 l/m 0 min 0 min 0 W/m 23,0 km/h (4 Bft)
28.07.2015 05:28 12,7 C 11,7 C 85 % 0 lf 1003,8 hPa 0,0 l/m 0 min 0 min 0 W/m 25,1 km/h (4 Bft)
28.07.2015 05:30 12,7 C 11,7 C 85 % 0 lf 1003,8 hPa 0,0 l/m 0 min 0 min 0 W/m 25,1 km/h (4 Bft)
28.07.2015 05:32 12,6 C 11,7 C 85 % 0 lf 1003,7 hPa 0,0 l/m 0 min 0 min 0 W/m 27,2 km/h (4 Bft)
28.07.2015 05:34 12,7 C 11,7 C 85 % 0 lf 1003,8 hPa 0,0 l/m 0 min 0 min 0 W/m 23,0 km/h (4 Bft)
28.07.2015 05:36 12,7 C 11,7 C 85 % 0 lf 1003,7 hPa 0,0 l/m 0 min 0 min 0 W/m 27,2 km/h (4 Bft)
28.07.2015 05:38 12,7 C 11,7 C 85 % 0 lf 1003,8 hPa 0,0 l/m 0 min 0 min 0 W/m 23,0 km/h (4 Bft)
28.07.2015 05:40 12,7 C 11,7 C 84 % 0 lf 1003,7 hPa 0,0 l/m 0 min 0 min 0 W/m 27,2 km/h (4 Bft)
28.07.2015 05:42 12,7 C 11,7 C 84 % 0 lf 1003,7 hPa 0,0 l/m 0 min 0 min 0 W/m 25,1 km/h (4 Bft)
28.07.2015 05:44 12,7 C 11,7 C 84 % 0 lf 1003,7 hPa 0,0 l/m 0 min 0 min 0 W/m 20,9 km/h (4 Bft)
28.07.2015 05:46 12,7 C 11,7 C 84 % 0 lf 1003,8 hPa 0,0 l/m 0 min 0 min 2 W/m 23,0 km/h (4 Bft)
28.07.2015 05:48 12,7 C 11,7 C 84 % 0 lf 1003,7 hPa 0,0 l/m 0 min 0 min 5 W/m 29,3 km/h (5 Bft)
28.07.2015 05:50 12,7 C 11,7 C 84 % 0 lf 1003,8 hPa 0,0 l/m 0 min 0 min 5 W/m 25,1 km/h (4 Bft)
28.07.2015 05:52 12,8 C 11,7 C 84 % 0 lf 1003,8 hPa 0,0 l/m 0 min 0 min 5 W/m 25,1 km/h (4 Bft)
28.07.2015 05:54 12,8 C 11,7 C 84 % 0 lf 1003,8 hPa 0,0 l/m 0 min 0 min 6 W/m 29,3 km/h (5 Bft)
28.07.2015 05:56 12,8 C 12,2 C 84 % 0 lf 1003,8 hPa 0,0 l/m 0 min 0 min 7 W/m 29,3 km/h (5 Bft)
28.07.2015 05:58 12,9 C 12,2 C 84 % 0 lf 1004,0 hPa 0,0 l/m 0 min 0 min 7 W/m 23,0 km/h (4 Bft)
28.07.2015 06:00 12,9 C 12,2 C 84 % 0 lf 1004,0 hPa 0,0 l/m 0 min 0 min 9 W/m 29,3 km/h (5 Bft)
28.07.2015 06:02 12,9 C 12,2 C 84 % 0 lf 1004,0 hPa 0,0 l/m 0 min 0 min 9 W/m 31,4 km/h (5 Bft)
28.07.2015 06:05 13,0 C 12,2 C 84 % 0 lf 1003,9 hPa 0,0 l/m 0 min 0 min 10 W/m 31,4 km/h (5 Bft)
28.07.2015 06:06 13,0 C 12,2 C 84 % 0 lf 1003,9 hPa 0,0 l/m 0 min 0 min 11 W/m 16,7 km/h (3 Bft)
28.07.2015 06:08 13,1 C 12,2 C 84 % 0 lf 1003,9 hPa 0,0 l/m 0 min 0 min 12 W/m 25,1 km/h (4 Bft)
28.07.2015 06:10 13,1 C 12,2 C 84 % 0 lf 1004,0 hPa 0,0 l/m 0 min 0 min 13 W/m 27,2 km/h (4 Bft)
28.07.2015 06:12 13,1 C 12,2 C 83 % 0 lf 1004,0 hPa 0,0 l/m 0 min 0 min 14 W/m 27,2 km/h (4 Bft)
28.07.2015 06:14 13,2 C 12,2 C 83 % 0 lf 1004,0 hPa 0,0 l/m 0 min 0 min 16 W/m 31,4 km/h (5 Bft)
28.07.2015 06:16 13,2 C 12,2 C 83 % 0 lf 1004,0 hPa 0,0 l/m 0 min 0 min 16 W/m 20,9 km/h (4 Bft)
28.07.2015 06:18 13,2 C 12,2 C 83 % 0 lf 1004,0 hPa 0,0 l/m 0 min 0 min 17 W/m 29,3 km/h (5 Bft)
28.07.2015 06:20 13,2 C 12,2 C 83 % 0 lf 1004,0 hPa 0,0 l/m 0 min 0 min 19 W/m 29,3 km/h (5 Bft)
28.07.2015 06:22 13,3 C 12,2 C 83 % 0 lf 1004,0 hPa 0,0 l/m 0 min 0 min 21 W/m 20,9 km/h (4 Bft)
28.07.2015 06:24 13,3 C 12,2 C 83 % 0 lf 1004,0 hPa 0,0 l/m 0 min 0 min 24 W/m 27,2 km/h (4 Bft)
28.07.2015 06:26 13,3 C 12,2 C 83 % 0 lf 1004,0 hPa 0,0 l/m 0 min 0 min 26 W/m 20,9 km/h (4 Bft)
28.07.2015 06:28 13,3 C 12,2 C 83 % 0 lf 1004,1 hPa 0,0 l/m 0 min 0 min 29 W/m 29,3 km/h (5 Bft)
28.07.2015 06:30 13,3 C 12,2 C 83 % 0 lf 1004,1 hPa 0,0 l/m 0 min 0 min 30 W/m 27,2 km/h (4 Bft)
28.07.2015 06:32 13,4 C 12,2 C 83 % 0 lf 1004,0 hPa 0,0 l/m 0 min 0 min 32 W/m 27,2 km/h (4 Bft)
28.07.2015 06:34 13,4 C 12,2 C 83 % 0 lf 1004,0 hPa 0,0 l/m 0 min 0 min 32 W/m 20,9 km/h (4 Bft)
28.07.2015 06:36 13,4 C 12,2 C 83 % 0 lf 1004,0 hPa 0,0 l/m 0 min 0 min 35 W/m 23,0 km/h (4 Bft)
28.07.2015 06:38 13,4 C 12,2 C 83 % 0 lf 1004,1 hPa 0,0 l/m 0 min 0 min 39 W/m 23,0 km/h (4 Bft)
28.07.2015 06:40 13,4 C 12,2 C 83 % 0 lf 1004,0 hPa 0,0 l/m 0 min 0 min 40 W/m 27,2 km/h (4 Bft)
28.07.2015 06:42 13,5 C 12,2 C 83 % 0 lf 1004,0 hPa 0,0 l/m 0 min 0 min 43 W/m 29,3 km/h (5 Bft)
28.07.2015 06:44 13,5 C 12,8 C 83 % 0 lf 1004,1 hPa 0,0 l/m 0 min 0 min 47 W/m 31,4 km/h (5 Bft)
28.07.2015 06:46 13,5 C 12,8 C 83 % 0 lf 1004,1 hPa 0,0 l/m 0 min 0 min 50 W/m 23,0 km/h (4 Bft)
28.07.2015 06:48 13,6 C 12,8 C 83 % 0 lf 1004,0 hPa 0,0 l/m 0 min 0 min 45 W/m 23,0 km/h (4 Bft)
28.07.2015 06:50 13,6 C 12,8 C 83 % 0 lf 1004,1 hPa 0,0 l/m 0 min 0 min 49 W/m 14,6 km/h (3 Bft)
28.07.2015 06:52 13,6 C 12,8 C 83 % 0 lf 1004,1 hPa 0,0 l/m 0 min 0 min 53 W/m 23,0 km/h (4 Bft)
28.07.2015 06:54 13,6 C 12,8 C 83 % 0 lf 1004,1 hPa 0,0 l/m 0 min 0 min 60 W/m 23,0 km/h (4 Bft)
28.07.2015 06:56 13,7 C 12,8 C 83 % 0 lf 1004,1 hPa 0,0 l/m 0 min 0 min 66 W/m 23,0 km/h (4 Bft)
28.07.2015 06:58 13,7 C 12,8 C 83 % 0 lf 1004,1 hPa 0,0 l/m 0 min 0 min 49 W/m 23,0 km/h (4 Bft)
28.07.2015 07:00 13,7 C 12,8 C 83 % 0 lf 1004,0 hPa 0,0 l/m 0 min 0 min 47 W/m 23,0 km/h (4 Bft)
28.07.2015 07:02 13,7 C 12,8 C 83 % 0 lf 1004,1 hPa 0,0 l/m 0 min 0 min 46 W/m 20,9 km/h (4 Bft)
28.07.2015 07:04 13,8 C 12,8 C 83 % 0 lf 1004,1 hPa 0,0 l/m 0 min 0 min 42 W/m 29,3 km/h (5 Bft)
28.07.2015 07:06 13,8 C 12,8 C 83 % 0 lf 1004,1 hPa 0,0 l/m 0 min 0 min 43 W/m 27,2 km/h (4 Bft)
28.07.2015 07:08 13,8 C 12,8 C 83 % 0 lf 1004,1 hPa 0,0 l/m 0 min 0 min 48 W/m 18,8 km/h (3 Bft)
28.07.2015 07:10 13,8 C 12,8 C 83 % 0 lf 1004,1 hPa 0,0 l/m 0 min 0 min 58 W/m 25,1 km/h (4 Bft)
28.07.2015 07:12 13,9 C 12,8 C 83 % 0 lf 1004,1 hPa 0,0 l/m 0 min 0 min 60 W/m 29,3 km/h (5 Bft)
28.07.2015 07:14 13,9 C 12,8 C 83 % 0 lf 1004,1 hPa 0,0 l/m 0 min 0 min 59 W/m 25,1 km/h (4 Bft)
28.07.2015 07:16 14,0 C 13,3 C 83 % 0 lf 1004,2 hPa 0,0 l/m 0 min 0 min 64 W/m 33,5 km/h (5 Bft)
28.07.2015 07:18 14,0 C 13,3 C 83 % 0 lf 1004,2 hPa 0,0 l/m 0 min 0 min 65 W/m 27,2 km/h (4 Bft)
28.07.2015 07:20 14,1 C 13,3 C 83 % 0 lf 1004,3 hPa 0,0 l/m 0 min 0 min 62 W/m 29,3 km/h (5 Bft)
28.07.2015 07:22 14,1 C 13,3 C 83 % 0 lf 1004,2 hPa 0,0 l/m 0 min 0 min 60 W/m 29,3 km/h (5 Bft)
28.07.2015 07:24 14,2 C 13,3 C 83 % 0 lf 1004,2 hPa 0,0 l/m 0 min 0 min 60 W/m 27,2 km/h (4 Bft)
28.07.2015 07:26 14,2 C 13,3 C 83 % 0 lf 1004,3 hPa 0,0 l/m 0 min 0 min 61 W/m 27,2 km/h (4 Bft)
28.07.2015 07:28 14,2 C 13,3 C 83 % 0 lf 1004,3 hPa 0,0 l/m 0 min 0 min 63 W/m 25,1 km/h (4 Bft)
28.07.2015 07:30 14,2 C 13,3 C 83 % 0 lf 1004,3 hPa 0,0 l/m 0 min 0 min 64 W/m 18,8 km/h (3 Bft)
28.07.2015 07:32 14,2 C 13,3 C 83 % 0 lf 1004,3 hPa 0,0 l/m 0 min 0 min 56 W/m 31,4 km/h (5 Bft)
28.07.2015 07:34 14,2 C 13,3 C 83 % 0 lf 1004,3 hPa 0,0 l/m 0 min 0 min 42 W/m 23,0 km/h (4 Bft)
28.07.2015 07:36 14,2 C 13,3 C 83 % 0 lf 1004,3 hPa 0,0 l/m 0 min 0 min 38 W/m 37,7 km/h (5 Bft)
28.07.2015 07:38 14,3 C 13,3 C 83 % 2 lf 1004,4 hPa 0,0 l/m 0 min 0 min 36 W/m 27,2 km/h (4 Bft)
28.07.2015 07:40 14,3 C 12,8 C 83 % 4 lf 1004,4 hPa 0,0 l/m 0 min 2 min 32 W/m 18,8 km/h (3 Bft)
28.07.2015 07:42 14,3 C 12,2 C 84 % 4 lf 1004,5 hPa 0,0 l/m 0 min 2 min 28 W/m 23,0 km/h (4 Bft)
28.07.2015 07:44 14,3 C 12,2 C 84 % 1 lf 1004,5 hPa 0,0 l/m 0 min 0 min 34 W/m 29,3 km/h (5 Bft)
28.07.2015 07:46 14,3 C 12,2 C 84 % 0 lf 1004,4 hPa 0,0 l/m 0 min 0 min 39 W/m 23,0 km/h (4 Bft)
28.07.2015 07:48 14,3 C 12,8 C 84 % 0 lf 1004,4 hPa 0,0 l/m 0 min 0 min 39 W/m 14,6 km/h (3 Bft)
28.07.2015 07:50 14,3 C 12,8 C 84 % 0 lf 1004,5 hPa 0,0 l/m 0 min 0 min 37 W/m 23,0 km/h (4 Bft)
28.07.2015 07:52 14,3 C 12,8 C 84 % 1 lf 1004,5 hPa 0,0 l/m 0 min 0 min 37 W/m 12,6 km/h (3 Bft)
28.07.2015 07:54 14,3 C 12,8 C 84 % 3 lf 1004,4 hPa 0,0 l/m 0 min 2 min 34 W/m 18,8 km/h (3 Bft)
28.07.2015 07:56 14,3 C 12,8 C 84 % 9 lf 1004,4 hPa 0,0 l/m 0 min 2 min 32 W/m 20,9 km/h (4 Bft)
28.07.2015 07:58 14,3 C 12,2 C 85 % 4 lf 1004,4 hPa 0,0 l/m 0 min 2 min 30 W/m 20,9 km/h (4 Bft)
28.07.2015 08:00 14,3 C 12,2 C 85 % 2 lf 1004,4 hPa 0,0 l/m 0 min 2 min 39 W/m 33,5 km/h (5 Bft)
28.07.2015 08:02 14,3 C 12,2 C 85 % 0 lf 1004,4 hPa 0,0 l/m 0 min 0 min 50 W/m 20,9 km/h (4 Bft)
28.07.2015 08:04 14,3 C 12,8 C 85 % 0 lf 1004,4 hPa 0,0 l/m 0 min 0 min 50 W/m 27,2 km/h (4 Bft)
28.07.2015 08:06 14,3 C 12,8 C 85 % 0 lf 1004,4 hPa 0,0 l/m 0 min 0 min 53 W/m 29,3 km/h (5 Bft)
28.07.2015 08:08 14,3 C 12,8 C 85 % 0 lf 1004,4 hPa 0,0 l/m 0 min 0 min 76 W/m 25,1 km/h (4 Bft)
28.07.2015 08:10 14,3 C 13,3 C 85 % 0 lf 1004,5 hPa 0,0 l/m 0 min 0 min 116 W/m 23,0 km/h (4 Bft)
28.07.2015 08:12 14,3 C 13,3 C 85 % 0 lf 1004,4 hPa 0,0 l/m 0 min 0 min 121 W/m 20,9 km/h (4 Bft)
28.07.2015 08:14 14,3 C 13,3 C 85 % 0 lf 1004,4 hPa 0,0 l/m 0 min 0 min 113 W/m 27,2 km/h (4 Bft)
28.07.2015 08:16 14,4 C 13,9 C 85 % 0 lf 1004,4 hPa 0,0 l/m 0 min 0 min 99 W/m 25,1 km/h (4 Bft)
28.07.2015 08:18 14,4 C 13,9 C 85 % 2 lf 1004,3 hPa 0,0 l/m 0 min 0 min 99 W/m 18,8 km/h (3 Bft)
28.07.2015 08:20 14,4 C 13,9 C 85 % 1 lf 1004,4 hPa 0,0 l/m 0 min 2 min 92 W/m 23,0 km/h (4 Bft)
28.07.2015 08:22 14,5 C 13,3 C 85 % 0 lf 1004,4 hPa 0,0 l/m 0 min 0 min 89 W/m 20,9 km/h (4 Bft)
28.07.2015 08:24 14,5 C 13,3 C 85 % 0 lf 1004,5 hPa 0,0 l/m 0 min 0 min 79 W/m 25,1 km/h (4 Bft)
28.07.2015 08:26 14,6 C 13,9 C 84 % 0 lf 1004,5 hPa 0,0 l/m 0 min 0 min 76 W/m 23,0 km/h (4 Bft)
28.07.2015 08:28 14,6 C 13,9 C 84 % 0 lf 1004,5 hPa 0,0 l/m 0 min 0 min 82 W/m 27,2 km/h (4 Bft)
28.07.2015 08:30 14,6 C 13,9 C 84 % 0 lf 1004,6 hPa 0,0 l/m 0 min 0 min 84 W/m 29,3 km/h (5 Bft)
28.07.2015 08:32 14,6 C 13,9 C 84 % 0 lf 1004,5 hPa 0,0 l/m 0 min 0 min 74 W/m 35,6 km/h (5 Bft)
28.07.2015 08:34 14,7 C 13,9 C 84 % 0 lf 1004,5 hPa 0,0 l/m 0 min 0 min 81 W/m 27,2 km/h (4 Bft)
28.07.2015 08:36 14,7 C 13,9 C 84 % 0 lf 1004,6 hPa 0,0 l/m 0 min 0 min 81 W/m 29,3 km/h (5 Bft)
28.07.2015 08:38 14,7 C 13,9 C 84 % 0 lf 1004,7 hPa 0,0 l/m 0 min 0 min 89 W/m 29,3 km/h (5 Bft)
28.07.2015 08:40 14,7 C 13,9 C 84 % 0 lf 1004,8 hPa 0,0 l/m 0 min 0 min 100 W/m 27,2 km/h (4 Bft)
28.07.2015 08:42 14,8 C 13,9 C 84 % 0 lf 1004,8 hPa 0,0 l/m 0 min 0 min 92 W/m 31,4 km/h (5 Bft)
28.07.2015 08:44 14,8 C 13,9 C 83 % 0 lf 1004,8 hPa 0,0 l/m 0 min 0 min 107 W/m 31,4 km/h (5 Bft)
28.07.2015 08:46 14,8 C 13,9 C 83 % 0 lf 1004,8 hPa 0,0 l/m 0 min 0 min 128 W/m 37,7 km/h (5 Bft)
28.07.2015 08:48 14,9 C 13,9 C 83 % 0 lf 1004,8 hPa 0,0 l/m 0 min 0 min 103 W/m 33,5 km/h (5 Bft)
28.07.2015 08:50 14,9 C 13,9 C 83 % 0 lf 1004,8 hPa 0,0 l/m 0 min 0 min 89 W/m 35,6 km/h (5 Bft)
28.07.2015 08:52 14,9 C 13,9 C 83 % 0 lf 1004,9 hPa 0,0 l/m 0 min 0 min 100 W/m 29,3 km/h (5 Bft)
28.07.2015 08:54 15,0 C 14,4 C 83 % 0 lf 1005,0 hPa 0,0 l/m 0 min 0 min 93 W/m 29,3 km/h (5 Bft)
28.07.2015 08:56 15,0 C 14,4 C 82 % 0 lf 1005,0 hPa 0,0 l/m 0 min 0 min 98 W/m 27,2 km/h (4 Bft)
28.07.2015 08:58 15,1 C 14,4 C 82 % 0 lf 1005,0 hPa 0,0 l/m 0 min 0 min 102 W/m 29,3 km/h (5 Bft)
28.07.2015 09:00 15,1 C 14,4 C 82 % 0 lf 1005,0 hPa 0,0 l/m 0 min 0 min 106 W/m 25,1 km/h (4 Bft)
28.07.2015 09:02 15,1 C 14,4 C 82 % 0 lf 1005,0 hPa 0,0 l/m 0 min 0 min 133 W/m 20,9 km/h (4 Bft)
28.07.2015 09:04 15,2 C 14,4 C 82 % 0 lf 1005,1 hPa 0,0 l/m 0 min 0 min 149 W/m 16,7 km/h (3 Bft)
28.07.2015 09:06 15,2 C 14,4 C 82 % 0 lf 1005,1 hPa 0,0 l/m 0 min 0 min 162 W/m 35,6 km/h (5 Bft)
28.07.2015 09:08 15,2 C 14,4 C 82 % 0 lf 1005,0 hPa 0,0 l/m 0 min 0 min 134 W/m 41,8 km/h (6 Bft)
28.07.2015 09:10 15,3 C 14,4 C 82 % 0 lf 1005,0 hPa 0,0 l/m 0 min 0 min 124 W/m 35,6 km/h (5 Bft)
28.07.2015 09:12 15,3 C 14,4 C 81 % 0 lf 1005,0 hPa 0,0 l/m 0 min 0 min 104 W/m 37,7 km/h (5 Bft)
28.07.2015 09:14 15,3 C 14,4 C 81 % 0 lf 1005,0 hPa 0,0 l/m 0 min 0 min 93 W/m 20,9 km/h (4 Bft)
28.07.2015 09:16 15,3 C 14,4 C 81 % 0 lf 1005,0 hPa 0,0 l/m 0 min 0 min 90 W/m 35,6 km/h (5 Bft)
28.07.2015 09:18 15,3 C 14,4 C 81 % 0 lf 1005,0 hPa 0,0 l/m 0 min 0 min 103 W/m 33,5 km/h (5 Bft)
28.07.2015 09:20 15,4 C 14,4 C 81 % 0 lf 1004,9 hPa 0,0 l/m 0 min 0 min 126 W/m 27,2 km/h (4 Bft)
28.07.2015 09:22 15,4 C 14,4 C 81 % 0 lf 1005,0 hPa 0,0 l/m 0 min 0 min 153 W/m 33,5 km/h (5 Bft)
28.07.2015 09:24 15,4 C 14,4 C 81 % 0 lf 1005,0 hPa 0,0 l/m 0 min 0 min 176 W/m 39,7 km/h (6 Bft)
28.07.2015 09:26 15,4 C 14,4 C 81 % 0 lf 1005,0 hPa 0,0 l/m 0 min 0 min 180 W/m 31,4 km/h (5 Bft)
28.07.2015 09:28 15,5 C 15,0 C 81 % 0 lf 1005,0 hPa 0,0 l/m 0 min 0 min 212 W/m 39,7 km/h (6 Bft)
28.07.2015 09:30 15,5 C 15,0 C 81 % 0 lf 1005,0 hPa 0,0 l/m 2 min 0 min 274 W/m 29,3 km/h (5 Bft)
28.07.2015 09:32 15,6 C 15,0 C 81 % 0 lf 1005,0 hPa 0,0 l/m 2 min 0 min 286 W/m 29,3 km/h (5 Bft)
28.07.2015 09:34 15,6 C 15,0 C 81 % 0 lf 1005,0 hPa 0,0 l/m 2 min 0 min 280 W/m 33,5 km/h (5 Bft)
28.07.2015 09:36 15,7 C 15,6 C 81 % 0 lf 1005,1 hPa 0,0 l/m 2 min 0 min 269 W/m 25,1 km/h (4 Bft)
28.07.2015 09:38 15,8 C 15,6 C 81 % 0 lf 1005,0 hPa 0,0 l/m 0 min 0 min 191 W/m 25,1 km/h (4 Bft)
28.07.2015 09:40 15,9 C 15,6 C 80 % 0 lf 1005,0 hPa 0,0 l/m 0 min 0 min 256 W/m 41,8 km/h (6 Bft)
28.07.2015 09:42 15,9 C 15,6 C 80 % 0 lf 1005,0 hPa 0,0 l/m 2 min 0 min 271 W/m 46,0 km/h (6 Bft)
28.07.2015 09:44 16,0 C 15,6 C 80 % 0 lf 1005,0 hPa 0,0 l/m 2 min 0 min 314 W/m 25,1 km/h (4 Bft)
28.07.2015 09:46 16,1 C 15,6 C 80 % 0 lf 1005,0 hPa 0,0 l/m 0 min 0 min 235 W/m 25,1 km/h (4 Bft)
28.07.2015 09:48 16,1 C 15,6 C 80 % 0 lf 1005,1 hPa 0,0 l/m 0 min 0 min 198 W/m 41,8 km/h (6 Bft)
28.07.2015 09:50 16,2 C 15,6 C 79 % 0 lf 1005,0 hPa 0,0 l/m 0 min 0 min 206 W/m 46,0 km/h (6 Bft)
28.07.2015 09:52 16,2 C 15,6 C 78 % 0 lf 1005,0 hPa 0,0 l/m 0 min 0 min 202 W/m 35,6 km/h (5 Bft)
28.07.2015 09:54 16,2 C 15,0 C 78 % 0 lf 1005,1 hPa 0,0 l/m 0 min 0 min 165 W/m 23,0 km/h (4 Bft)
28.07.2015 09:56 16,2 C 15,0 C 78 % 0 lf 1005,1 hPa 0,0 l/m 0 min 0 min 141 W/m 41,8 km/h (6 Bft)
28.07.2015 09:58 16,2 C 15,0 C 78 % 0 lf 1005,0 hPa 0,0 l/m 0 min 0 min 196 W/m 39,7 km/h (6 Bft)
28.07.2015 10:00 16,2 C 15,6 C 78 % 0 lf 1005,0 hPa 0,0 l/m 0 min 0 min 242 W/m 27,2 km/h (4 Bft)
28.07.2015 10:02 16,2 C 16,7 C 78 % 0 lf 1005,0 hPa 0,0 l/m 0 min 0 min 260 W/m 37,7 km/h (5 Bft)
28.07.2015 10:04 16,3 C 16,7 C 78 % 0 lf 1005,0 hPa 0,0 l/m 2 min 0 min 375 W/m 39,7 km/h (6 Bft)
28.07.2015 10:06 16,3 C 16,7 C 78 % 0 lf 1005,0 hPa 0,0 l/m 2 min 0 min 428 W/m 41,8 km/h (6 Bft)
28.07.2015 10:08 16,4 C 16,7 C 78 % 0 lf 1005,0 hPa 0,0 l/m 0 min 0 min 282 W/m 25,1 km/h (4 Bft)
28.07.2015 10:10 16,5 C 16,7 C 78 % 0 lf 1005,1 hPa 0,0 l/m 0 min 0 min 291 W/m 31,4 km/h (5 Bft)
28.07.2015 10:12 16,6 C 16,7 C 78 % 0 lf 1005,1 hPa 0,0 l/m 0 min 0 min 266 W/m 29,3 km/h (5 Bft)
28.07.2015 10:14 16,6 C 16,7 C 77 % 0 lf 1005,0 hPa 0,0 l/m 2 min 0 min 335 W/m 41,8 km/h (6 Bft)
28.07.2015 10:16 16,7 C 16,7 C 77 % 0 lf 1005,1 hPa 0,0 l/m 2 min 0 min 335 W/m 33,5 km/h (5 Bft)
28.07.2015 10:18 16,8 C 17,8 C 77 % 0 lf 1005,0 hPa 0,0 l/m 2 min 0 min 510 W/m 33,5 km/h (5 Bft)
28.07.2015 10:20 16,9 C 17,2 C 77 % 0 lf 1004,9 hPa 0,0 l/m 2 min 0 min 467 W/m 37,7 km/h (5 Bft)
28.07.2015 10:22 16,9 C 16,7 C 77 % 0 lf 1005,0 hPa 0,0 l/m 0 min 0 min 285 W/m 31,4 km/h (5 Bft)
28.07.2015 10:24 17,0 C 16,7 C 76 % 0 lf 1005,0 hPa 0,0 l/m 0 min 0 min 269 W/m 41,8 km/h (6 Bft)
28.07.2015 10:26 17,0 C 16,7 C 76 % 0 lf 1005,1 hPa 0,0 l/m 0 min 0 min 268 W/m 27,2 km/h (4 Bft)
28.07.2015 10:28 17,0 C 16,7 C 76 % 0 lf 1005,0 hPa 0,0 l/m 0 min 0 min 251 W/m 25,1 km/h (4 Bft)
28.07.2015 10:30 17,1 C 16,1 C 76 % 0 lf 1005,1 hPa 0,0 l/m 0 min 0 min 258 W/m 27,2 km/h (4 Bft)
28.07.2015 10:32 17,1 C 16,1 C 76 % 0 lf 1005,1 hPa 0,0 l/m 0 min 0 min 243 W/m 23,0 km/h (4 Bft)
28.07.2015 10:34 17,1 C 16,7 C 76 % 0 lf 1005,2 hPa 0,0 l/m 0 min 0 min 276 W/m 37,7 km/h (5 Bft)
28.07.2015 10:36 17,0 C 16,1 C 75 % 0 lf 1005,1 hPa 0,0 l/m 0 min 0 min 249 W/m 31,4 km/h (5 Bft)
28.07.2015 10:38 17,0 C 16,1 C 76 % 0 lf 1005,2 hPa 0,0 l/m 0 min 0 min 249 W/m 37,7 km/h (5 Bft)
28.07.2015 10:40 17,0 C 16,1 C 75 % 0 lf 1005,0 hPa 0,0 l/m 0 min 0 min 234 W/m 33,5 km/h (5 Bft)
28.07.2015 10:42 16,9 C 16,1 C 75 % 0 lf 1005,1 hPa 0,0 l/m 0 min 0 min 217 W/m 31,4 km/h (5 Bft)
28.07.2015 10:44 17,0 C 16,1 C 75 % 0 lf 1005,2 hPa 0,0 l/m 0 min 0 min 263 W/m 23,0 km/h (4 Bft)
28.07.2015 10:46 17,0 C 16,7 C 76 % 0 lf 1005,2 hPa 0,0 l/m 0 min 0 min 310 W/m 27,2 km/h (4 Bft)
28.07.2015 10:48 17,0 C 16,7 C 76 % 0 lf 1005,2 hPa 0,0 l/m 0 min 0 min 321 W/m 27,2 km/h (4 Bft)
28.07.2015 10:50 17,0 C 16,7 C 75 % 0 lf 1005,3 hPa 0,0 l/m 0 min 0 min 313 W/m 41,8 km/h (6 Bft)
28.07.2015 10:52 17,1 C 16,7 C 74 % 0 lf 1005,2 hPa 0,0 l/m 0 min 0 min 305 W/m 35,6 km/h (5 Bft)
28.07.2015 10:54 17,1 C 16,7 C 74 % 0 lf 1005,3 hPa 0,0 l/m 0 min 0 min 315 W/m 39,7 km/h (6 Bft)
28.07.2015 10:56 17,1 C 16,7 C 73 % 0 lf 1005,4 hPa 0,0 l/m 0 min 0 min 319 W/m 39,7 km/h (6 Bft)
28.07.2015 10:58 17,1 C 16,7 C 73 % 0 lf 1005,3 hPa 0,0 l/m 0 min 0 min 319 W/m 58,6 km/h (7 Bft)
28.07.2015 11:00 17,1 C 16,7 C 73 % 0 lf 1005,3 hPa 0,0 l/m 0 min 0 min 334 W/m 54,4 km/h (7 Bft)
28.07.2015 11:02 17,2 C 17,2 C 74 % 0 lf 1005,3 hPa 0,0 l/m 2 min 0 min 405 W/m 23,0 km/h (4 Bft)
28.07.2015 11:04 17,2 C 17,2 C 74 % 0 lf 1005,3 hPa 0,0 l/m 2 min 0 min 446 W/m 43,9 km/h (6 Bft)
28.07.2015 11:06 17,3 C 16,7 C 74 % 0 lf 1005,5 hPa 0,0 l/m 2 min 0 min 364 W/m 41,8 km/h (6 Bft)
28.07.2015 11:08 17,3 C 16,7 C 73 % 0 lf 1005,4 hPa 0,0 l/m 2 min 0 min 362 W/m 33,5 km/h (5 Bft)
28.07.2015 11:10 17,3 C 16,7 C 74 % 0 lf 1005,3 hPa 0,0 l/m 2 min 0 min 368 W/m 43,9 km/h (6 Bft)
28.07.2015 11:12 17,4 C 16,7 C 73 % 0 lf 1005,4 hPa 0,0 l/m 2 min 0 min 380 W/m 41,8 km/h (6 Bft)
28.07.2015 11:14 17,4 C 17,2 C 74 % 0 lf 1005,4 hPa 0,0 l/m 2 min 0 min 372 W/m 31,4 km/h (5 Bft)
28.07.2015 11:16 17,4 C 17,2 C 74 % 0 lf 1005,3 hPa 0,0 l/m 2 min 0 min 459 W/m 33,5 km/h (5 Bft)
28.07.2015 11:18 17,5 C 17,2 C 73 % 0 lf 1005,5 hPa 0,0 l/m 0 min 0 min 309 W/m 41,8 km/h (6 Bft)
28.07.2015 11:20 17,5 C 16,7 C 72 % 0 lf 1005,5 hPa 0,0 l/m 0 min 0 min 321 W/m 46,0 km/h (6 Bft)
28.07.2015 11:22 17,5 C 16,7 C 72 % 0 lf 1005,4 hPa 0,0 l/m 0 min 0 min 325 W/m 41,8 km/h (6 Bft)
28.07.2015 11:24 17,5 C 16,7 C 72 % 0 lf 1005,5 hPa 0,0 l/m 0 min 0 min 303 W/m 31,4 km/h (5 Bft)
28.07.2015 11:26 17,5 C 16,7 C 72 % 0 lf 1005,4 hPa 0,0 l/m 0 min 0 min 318 W/m 37,7 km/h (5 Bft)
28.07.2015 11:28 17,4 C 16,7 C 72 % 0 lf 1005,4 hPa 0,0 l/m 0 min 0 min 355 W/m 39,7 km/h (6 Bft)
28.07.2015 11:30 17,4 C 17,2 C 73 % 0 lf 1005,5 hPa 0,0 l/m 0 min 0 min 362 W/m 25,1 km/h (4 Bft)
28.07.2015 11:32 17,5 C 17,2 C 73 % 0 lf 1005,5 hPa 0,0 l/m 2 min 0 min 370 W/m 31,4 km/h (5 Bft)
28.07.2015 11:34 17,5 C 17,2 C 73 % 0 lf 1005,5 hPa 0,0 l/m 2 min 0 min 410 W/m 39,7 km/h (6 Bft)
28.07.2015 11:36 17,6 C 17,2 C 73 % 0 lf 1005,5 hPa 0,0 l/m 2 min 0 min 470 W/m 39,7 km/h (6 Bft)
28.07.2015 11:38 17,6 C 17,2 C 72 % 0 lf 1005,5 hPa 0,0 l/m 2 min 0 min 438 W/m 41,8 km/h (6 Bft)
28.07.2015 11:40 17,5 C 17,2 C 72 % 0 lf 1005,5 hPa 0,0 l/m 2 min 0 min 442 W/m 39,7 km/h (6 Bft)
28.07.2015 11:42 17,5 C 17,2 C 72 % 0 lf 1005,6 hPa 0,0 l/m 2 min 0 min 398 W/m 43,9 km/h (6 Bft)
28.07.2015 11:44 17,5 C 16,7 C 72 % 0 lf 1005,6 hPa 0,0 l/m 0 min 0 min 340 W/m 29,3 km/h (5 Bft)
28.07.2015 11:46 17,5 C 16,7 C 72 % 0 lf 1005,6 hPa 0,0 l/m 0 min 0 min 293 W/m 43,9 km/h (6 Bft)
28.07.2015 11:48 17,4 C 16,7 C 72 % 0 lf 1005,5 hPa 0,0 l/m 0 min 0 min 288 W/m 37,7 km/h (5 Bft)
28.07.2015 11:50 17,4 C 16,7 C 73 % 0 lf 1005,6 hPa 0,0 l/m 0 min 0 min 283 W/m 31,4 km/h (5 Bft)
28.07.2015 11:52 17,4 C 16,7 C 73 % 0 lf 1005,5 hPa 0,0 l/m 0 min 0 min 282 W/m 31,4 km/h (5 Bft)
28.07.2015 11:54 17,4 C 16,7 C 73 % 0 lf 1005,6 hPa 0,0 l/m 0 min 0 min 265 W/m 46,0 km/h (6 Bft)
28.07.2015 11:56 17,3 C 16,1 C 72 % 0 lf 1005,7 hPa 0,0 l/m 0 min 0 min 240 W/m 43,9 km/h (6 Bft)
28.07.2015 11:58 17,2 C 16,1 C 72 % 0 lf 1005,7 hPa 0,0 l/m 0 min 0 min 236 W/m 39,7 km/h (6 Bft)
28.07.2015 12:00 17,2 C 16,1 C 73 % 0 lf 1005,7 hPa 0,0 l/m 0 min 0 min 268 W/m 33,5 km/h (5 Bft)
28.07.2015 12:03 17,1 C 16,1 C 73 % 0 lf 1005,8 hPa 0,0 l/m 0 min 0 min 237 W/m 37,7 km/h (5 Bft)
28.07.2015 12:04 17,1 C 16,1 C 73 % 0 lf 1005,8 hPa 0,0 l/m 0 min 0 min 246 W/m 41,8 km/h (6 Bft)
28.07.2015 12:06 17,0 C 16,1 C 73 % 0 lf 1005,8 hPa 0,0 l/m 0 min 0 min 219 W/m 33,5 km/h (5 Bft)
28.07.2015 12:08 16,9 C 16,1 C 74 % 0 lf 1005,9 hPa 0,0 l/m 0 min 0 min 189 W/m 37,7 km/h (5 Bft)
28.07.2015 12:10 16,9 C 15,6 C 74 % 1 lf 1005,9 hPa 0,0 l/m 0 min 2 min 188 W/m 25,1 km/h (4 Bft)
28.07.2015 12:12 16,9 C 15,0 C 75 % 8 lf 1005,9 hPa 0,0 l/m 0 min 2 min 255 W/m 29,3 km/h (5 Bft)
28.07.2015 12:14 16,9 C 14,4 C 76 % 14 lf 1005,9 hPa 0,0 l/m 0 min 2 min 256 W/m 29,3 km/h (5 Bft)
28.07.2015 12:16 16,8 C 13,9 C 77 % 15 lf 1006,0 hPa 0,0 l/m 0 min 2 min 236 W/m 27,2 km/h (4 Bft)
28.07.2015 12:18 16,8 C 13,3 C 79 % 15 lf 1006,0 hPa 0,2 l/m 0 min 2 min 216 W/m 29,3 km/h (5 Bft)
28.07.2015 12:20 16,7 C 13,9 C 80 % 15 lf 1006,1 hPa 0,0 l/m 0 min 2 min 205 W/m 20,9 km/h (4 Bft)
28.07.2015 12:22 16,7 C 13,3 C 81 % 15 lf 1006,2 hPa 0,0 l/m 0 min 2 min 178 W/m 25,1 km/h (4 Bft)
28.07.2015 12:24 16,6 C 13,3 C 82 % 15 lf 1006,4 hPa 0,0 l/m 0 min 2 min 175 W/m 35,6 km/h (5 Bft)
28.07.2015 12:26 16,4 C 13,3 C 82 % 15 lf 1006,3 hPa 0,0 l/m 0 min 2 min 213 W/m 27,2 km/h (4 Bft)
28.07.2015 12:28 16,2 C 13,3 C 83 % 15 lf 1006,4 hPa 0,0 l/m 0 min 2 min 287 W/m 27,2 km/h (4 Bft)
28.07.2015 12:30 16,1 C 13,3 C 84 % 15 lf 1006,3 hPa 0,0 l/m 0 min 2 min 308 W/m 31,4 km/h (5 Bft)
28.07.2015 12:32 16,0 C 13,9 C 85 % 15 lf 1006,3 hPa 0,0 l/m 0 min 0 min 304 W/m 20,9 km/h (4 Bft)
28.07.2015 12:34 15,9 C 13,3 C 85 % 15 lf 1006,3 hPa 0,0 l/m 0 min 0 min 248 W/m 27,2 km/h (4 Bft)
28.07.2015 12:36 15,8 C 13,3 C 85 % 15 lf 1006,2 hPa 0,0 l/m 0 min 0 min 230 W/m 33,5 km/h (5 Bft)
28.07.2015 12:38 15,7 C 12,8 C 85 % 15 lf 1006,4 hPa 0,0 l/m 0 min 0 min 169 W/m 33,5 km/h (5 Bft)
28.07.2015 12:40 15,5 C 12,8 C 85 % 15 lf 1006,3 hPa 0,0 l/m 0 min 2 min 153 W/m 37,7 km/h (5 Bft)
28.07.2015 12:42 15,3 C 12,8 C 85 % 15 lf 1006,4 hPa 0,0 l/m 0 min 2 min 173 W/m 25,1 km/h (4 Bft)
28.07.2015 12:44 15,3 C 12,8 C 86 % 15 lf 1006,4 hPa 0,0 l/m 0 min 2 min 163 W/m 27,2 km/h (4 Bft)
28.07.2015 12:46 15,2 C 12,8 C 86 % 15 lf 1006,4 hPa 0,0 l/m 0 min 2 min 135 W/m 39,7 km/h (6 Bft)
28.07.2015 12:48 15,1 C 12,8 C 86 % 15 lf 1006,4 hPa 0,0 l/m 0 min 2 min 131 W/m 31,4 km/h (5 Bft)
28.07.2015 12:50 14,9 C 12,8 C 87 % 15 lf 1006,4 hPa 0,0 l/m 0 min 2 min 153 W/m 33,5 km/h (5 Bft)
28.07.2015 12:52 14,9 C 12,8 C 87 % 15 lf 1006,5 hPa 0,0 l/m 0 min 2 min 195 W/m 29,3 km/h (5 Bft)
28.07.2015 12:54 14,8 C 12,8 C 88 % 15 lf 1006,4 hPa 0,0 l/m 0 min 2 min 206 W/m 33,5 km/h (5 Bft)
28.07.2015 12:56 14,8 C 12,8 C 88 % 15 lf 1006,3 hPa 0,0 l/m 0 min 2 min 227 W/m 33,5 km/h (5 Bft)
28.07.2015 12:58 14,7 C 12,8 C 88 % 15 lf 1006,2 hPa 0,0 l/m 0 min 2 min 218 W/m 29,3 km/h (5 Bft)
28.07.2015 13:00 14,7 C 12,8 C 89 % 15 lf 1006,2 hPa 0,0 l/m 0 min 2 min 217 W/m 33,5 km/h (5 Bft)
28.07.2015 13:02 14,6 C 12,8 C 89 % 15 lf 1006,0 hPa 0,0 l/m 0 min 2 min 284 W/m 29,3 km/h (5 Bft)
28.07.2015 13:04 14,6 C 12,8 C 89 % 15 lf 1006,2 hPa 0,0 l/m 0 min 0 min 328 W/m 29,3 km/h (5 Bft)
28.07.2015 13:06 14,6 C 13,3 C 90 % 15 lf 1006,1 hPa 0,0 l/m 0 min 0 min 338 W/m 18,8 km/h (3 Bft)
28.07.2015 13:08 14,6 C 13,3 C 90 % 15 lf 1006,1 hPa 0,0 l/m 0 min 0 min 358 W/m 27,2 km/h (4 Bft)
28.07.2015 13:10 14,6 C 13,3 C 90 % 15 lf 1006,1 hPa 0,0 l/m 0 min 0 min 359 W/m 23,0 km/h (4 Bft)
28.07.2015 13:12 14,7 C 13,9 C 91 % 15 lf 1006,0 hPa 0,0 l/m 0 min 0 min 367 W/m 18,8 km/h (3 Bft)
28.07.2015 13:14 14,8 C 14,4 C 91 % 15 lf 1006,1 hPa 0,0 l/m 2 min 0 min 450 W/m 23,0 km/h (4 Bft)
28.07.2015 13:16 14,9 C 14,4 C 91 % 15 lf 1006,1 hPa 0,0 l/m 2 min 0 min 569 W/m 23,0 km/h (4 Bft)
28.07.2015 13:18 14,9 C 14,4 C 91 % 12 lf 1006,1 hPa 0,0 l/m 2 min 0 min 457 W/m 35,6 km/h (5 Bft)
28.07.2015 13:20 15,0 C 14,4 C 91 % 3 lf 1006,1 hPa 0,0 l/m 2 min 0 min 409 W/m 25,1 km/h (4 Bft)
28.07.2015 13:22 15,1 C 14,4 C 91 % 0 lf 1006,0 hPa 0,0 l/m 2 min 0 min 493 W/m 27,2 km/h (4 Bft)
28.07.2015 13:24 15,2 C 14,4 C 90 % 0 lf 1006,0 hPa 0,0 l/m 2 min 0 min 517 W/m 29,3 km/h (5 Bft)
28.07.2015 13:26 15,3 C 14,4 C 90 % 0 lf 1005,9 hPa 0,0 l/m 2 min 0 min 488 W/m 33,5 km/h (5 Bft)
28.07.2015 13:28 15,4 C 14,4 C 89 % 0 lf 1006,1 hPa 0,0 l/m 2 min 0 min 489 W/m 31,4 km/h (5 Bft)
28.07.2015 13:30 15,5 C 14,4 C 89 % 0 lf 1006,0 hPa 0,0 l/m 2 min 0 min 431 W/m 35,6 km/h (5 Bft)
28.07.2015 13:32 15,6 C 13,9 C 88 % 1 lf 1006,1 hPa 0,0 l/m 0 min 0 min 230 W/m 37,7 km/h (5 Bft)
28.07.2015 13:34 15,6 C 13,9 C 87 % 0 lf 1006,2 hPa 0,0 l/m 0 min 2 min 242 W/m 43,9 km/h (6 Bft)
28.07.2015 13:36 15,6 C 13,9 C 86 % 0 lf 1006,2 hPa 0,0 l/m 0 min 0 min 300 W/m 33,5 km/h (5 Bft)
28.07.2015 13:38 15,7 C 13,9 C 86 % 0 lf 1006,1 hPa 0,0 l/m 0 min 0 min 292 W/m 41,8 km/h (6 Bft)
28.07.2015 13:40 15,7 C 13,9 C 85 % 0 lf 1006,1 hPa 0,0 l/m 0 min 0 min 304 W/m 39,7 km/h (6 Bft)
28.07.2015 13:42 15,7 C 13,9 C 85 % 0 lf 1005,9 hPa 0,0 l/m 0 min 0 min 334 W/m 41,8 km/h (6 Bft)
28.07.2015 13:44 15,7 C 14,4 C 84 % 0 lf 1006,1 hPa 0,0 l/m 0 min 0 min 339 W/m 37,7 km/h (5 Bft)
28.07.2015 13:46 15,8 C 13,9 C 84 % 0 lf 1006,1 hPa 0,0 l/m 0 min 0 min 279 W/m 37,7 km/h (5 Bft)
28.07.2015 13:48 15,8 C 14,4 C 83 % 0 lf 1006,2 hPa 0,0 l/m 0 min 0 min 267 W/m 27,2 km/h (4 Bft)
28.07.2015 13:50 15,8 C 14,4 C 83 % 0 lf 1006,2 hPa 0,0 l/m 0 min 0 min 302 W/m 31,4 km/h (5 Bft)
28.07.2015 13:52 15,9 C 15,0 C 83 % 0 lf 1006,2 hPa 0,0 l/m 0 min 0 min 329 W/m 29,3 km/h (5 Bft)
28.07.2015 13:54 15,9 C 15,0 C 84 % 0 lf 1006,2 hPa 0,0 l/m 0 min 0 min 335 W/m 31,4 km/h (5 Bft)
28.07.2015 13:56 16,0 C 15,0 C 83 % 0 lf 1006,2 hPa 0,0 l/m 0 min 0 min 351 W/m 27,2 km/h (4 Bft)
28.07.2015 13:58 16,1 C 15,6 C 83 % 0 lf 1006,2 hPa 0,0 l/m 0 min 0 min 319 W/m 33,5 km/h (5 Bft)
28.07.2015 14:00 16,1 C 15,0 C 83 % 0 lf 1006,3 hPa 0,0 l/m 0 min 0 min 278 W/m 31,4 km/h (5 Bft)
28.07.2015 14:02 16,1 C 15,0 C 83 % 0 lf 1006,3 hPa 0,0 l/m 0 min 0 min 283 W/m 37,7 km/h (5 Bft)
28.07.2015 14:04 16,2 C 15,0 C 82 % 0 lf 1006,3 hPa 0,0 l/m 0 min 0 min 333 W/m 46,0 km/h (6 Bft)
28.07.2015 14:06 16,2 C 15,6 C 82 % 0 lf 1006,4 hPa 0,0 l/m 0 min 0 min 373 W/m 35,6 km/h (5 Bft)
28.07.2015 14:08 16,3 C 15,6 C 82 % 0 lf 1006,5 hPa 0,0 l/m 2 min 0 min 409 W/m 39,7 km/h (6 Bft)
28.07.2015 14:10 16,3 C 16,1 C 82 % 0 lf 1006,5 hPa 0,0 l/m 0 min 0 min 369 W/m 60,7 km/h (7 Bft)
28.07.2015 14:12 16,3 C 15,6 C 80 % 0 lf 1006,5 hPa 0,0 l/m 0 min 0 min 324 W/m 52,3 km/h (7 Bft)
28.07.2015 14:14 16,3 C 16,1 C 79 % 0 lf 1006,5 hPa 0,0 l/m 0 min 0 min 338 W/m 43,9 km/h (6 Bft)
28.07.2015 14:16 16,3 C 15,6 C 79 % 0 lf 1006,4 hPa 0,0 l/m 0 min 0 min 319 W/m 43,9 km/h (6 Bft)
28.07.2015 14:18 16,3 C 15,6 C 78 % 0 lf 1006,4 hPa 0,0 l/m 0 min 0 min 312 W/m 33,5 km/h (5 Bft)
28.07.2015 14:20 16,3 C 16,1 C 79 % 0 lf 1006,5 hPa 0,0 l/m 0 min 0 min 350 W/m 35,6 km/h (5 Bft)
28.07.2015 14:22 16,3 C 16,1 C 78 % 0 lf 1006,5 hPa 0,0 l/m 2 min 0 min 410 W/m 35,6 km/h (5 Bft)
28.07.2015 14:24 16,3 C 16,7 C 78 % 0 lf 1006,5 hPa 0,0 l/m 2 min 0 min 405 W/m 39,7 km/h (6 Bft)
28.07.2015 14:26 16,4 C 16,7 C 77 % 0 lf 1006,4 hPa 0,2 l/m 2 min 0 min 425 W/m 46,0 km/h (6 Bft)
28.07.2015 14:28 16,4 C 16,1 C 77 % 0 lf 1006,5 hPa 0,0 l/m 2 min 0 min 406 W/m 41,8 km/h (6 Bft)
28.07.2015 14:30 16,5 C 16,7 C 77 % 0 lf 1006,5 hPa 0,0 l/m 2 min 0 min 412 W/m 37,7 km/h (5 Bft)
28.07.2015 14:32 16,6 C 16,7 C 77 % 0 lf 1006,5 hPa 0,0 l/m 0 min 0 min 384 W/m 37,7 km/h (5 Bft)
28.07.2015 14:34 16,6 C 16,7 C 77 % 0 lf 1006,5 hPa 0,0 l/m 0 min 0 min 372 W/m 33,5 km/h (5 Bft)
28.07.2015 14:36 16,6 C 16,7 C 76 % 0 lf 1006,4 hPa 0,0 l/m 0 min 0 min 399 W/m 27,2 km/h (4 Bft)
28.07.2015 14:38 16,7 C 16,7 C 76 % 0 lf 1006,4 hPa 0,0 l/m 2 min 0 min 446 W/m 37,7 km/h (5 Bft)
28.07.2015 14:40 16,7 C 16,7 C 75 % 0 lf 1006,5 hPa 0,0 l/m 2 min 0 min 485 W/m 41,8 km/h (6 Bft)
28.07.2015 14:42 16,7 C 17,2 C 75 % 0 lf 1006,5 hPa 0,0 l/m 2 min 0 min 455 W/m 37,7 km/h (5 Bft)
28.07.2015 14:44 16,8 C 17,2 C 75 % 0 lf 1006,5 hPa 0,0 l/m 2 min 0 min 412 W/m 37,7 km/h (5 Bft)
28.07.2015 14:46 16,8 C 17,2 C 75 % 0 lf 1006,5 hPa 0,0 l/m 2 min 0 min 430 W/m 39,7 km/h (6 Bft)
28.07.2015 14:48 16,9 C 16,7 C 75 % 0 lf 1006,4 hPa 0,0 l/m 2 min 0 min 429 W/m 37,7 km/h (5 Bft)
28.07.2015 14:50 16,9 C 16,7 C 74 % 0 lf 1006,5 hPa 0,0 l/m 2 min 0 min 407 W/m 39,7 km/h (6 Bft)
28.07.2015 14:52 16,9 C 16,7 C 75 % 0 lf 1006,5 hPa 0,0 l/m 0 min 0 min 379 W/m 29,3 km/h (5 Bft)
28.07.2015 14:54 17,0 C 17,2 C 74 % 0 lf 1006,5 hPa 0,0 l/m 2 min 0 min 418 W/m 29,3 km/h (5 Bft)
28.07.2015 14:56 17,0 C 17,2 C 74 % 0 lf 1006,5 hPa 0,0 l/m 2 min 0 min 458 W/m 35,6 km/h (5 Bft)
28.07.2015 14:58 17,1 C 17,2 C 73 % 0 lf 1006,5 hPa 0,0 l/m 2 min 0 min 456 W/m 39,7 km/h (6 Bft)
28.07.2015 15:00 17,1 C 17,2 C 74 % 0 lf 1006,5 hPa 0,0 l/m 2 min 0 min 475 W/m 31,4 km/h (5 Bft)
28.07.2015 15:02 17,2 C 17,8 C 73 % 0 lf 1006,4 hPa 0,0 l/m 2 min 0 min 473 W/m 29,3 km/h (5 Bft)
28.07.2015 15:04 17,3 C 17,2 C 72 % 0 lf 1006,3 hPa 0,0 l/m 2 min 0 min 484 W/m 39,7 km/h (6 Bft)
28.07.2015 15:06 17,3 C 17,2 C 72 % 0 lf 1006,5 hPa 0,0 l/m 2 min 0 min 472 W/m 41,8 km/h (6 Bft)
28.07.2015 15:08 17,4 C 17,8 C 73 % 0 lf 1006,5 hPa 0,0 l/m 2 min 0 min 445 W/m 27,2 km/h (4 Bft)
28.07.2015 15:09 17,4 C 17,8 C 73 % 0 lf 1006,4 hPa 0,0 l/m 1 min 0 min 424 W/m 27,2 km/h (4 Bft)
28.07.2015 15:10 17,4 C 17,8 C 73 % 0 lf 1006,5 hPa 0,0 l/m 1 min 0 min 390 W/m 25,1 km/h (4 Bft)
28.07.2015 15:11 17,5 C 17,8 C 72 % 0 lf 1006,4 hPa 0,0 l/m 0 min 0 min 385 W/m 27,2 km/h (4 Bft)
28.07.2015 15:12 17,5 C 17,8 C 72 % 0 lf 1006,4 hPa 0,0 l/m 0 min 0 min 385 W/m 12,6 km/h (3 Bft)
28.07.2015 15:14 17,6 C 17,8 C 72 % 0 lf 1006,5 hPa 0,0 l/m 2 min 0 min 422 W/m 27,2 km/h (4 Bft)
28.07.2015 15:16 17,7 C 17,8 C 73 % 0 lf 1006,4 hPa 0,0 l/m 2 min 0 min 528 W/m 31,4 km/h (5 Bft)
28.07.2015 15:18 17,8 C 18,3 C 73 % 0 lf 1006,4 hPa 0,0 l/m 2 min 0 min 514 W/m 25,1 km/h (4 Bft)
28.07.2015 15:20 17,9 C 18,3 C 72 % 0 lf 1006,5 hPa 0,0 l/m 2 min 0 min 530 W/m 33,5 km/h (5 Bft)
28.07.2015 15:22 17,9 C 18,3 C 72 % 0 lf 1006,5 hPa 0,0 l/m 2 min 0 min 580 W/m 31,4 km/h (5 Bft)
28.07.2015 15:24 18,1 C 18,3 C 72 % 0 lf 1006,6 hPa 0,0 l/m 2 min 0 min 718 W/m 31,4 km/h (5 Bft)
28.07.2015 15:26 18,2 C 18,9 C 73 % 0 lf 1006,5 hPa 0,0 l/m 2 min 0 min 760 W/m 18,8 km/h (3 Bft)
28.07.2015 15:28 18,4 C 18,9 C 72 % 0 lf 1006,3 hPa 0,0 l/m 2 min 0 min 708 W/m 31,4 km/h (5 Bft)
28.07.2015 15:30 18,6 C 18,9 C 71 % 0 lf 1006,5 hPa 0,0 l/m 2 min 0 min 547 W/m 31,4 km/h (5 Bft)
28.07.2015 15:32 18,7 C 18,3 C 70 % 0 lf 1006,4 hPa 0,0 l/m 2 min 0 min 423 W/m 39,7 km/h (6 Bft)
28.07.2015 15:34 18,7 C 18,3 C 69 % 0 lf 1006,5 hPa 0,0 l/m 2 min 0 min 423 W/m 33,5 km/h (5 Bft)
28.07.2015 15:36 18,7 C 17,8 C 69 % 0 lf 1006,5 hPa 0,0 l/m 0 min 0 min 358 W/m 46,0 km/h (6 Bft)
28.07.2015 15:38 18,7 C 17,8 C 68 % 0 lf 1006,5 hPa 0,0 l/m 0 min 0 min 324 W/m 41,8 km/h (6 Bft)
28.07.2015 15:40 18,6 C 17,8 C 68 % 0 lf 1006,6 hPa 0,0 l/m 0 min 0 min 270 W/m 46,0 km/h (6 Bft)
28.07.2015 15:42 18,6 C 17,2 C 68 % 0 lf 1006,6 hPa 0,0 l/m 0 min 0 min 250 W/m 43,9 km/h (6 Bft)
28.07.2015 15:44 18,4 C 17,2 C 68 % 0 lf 1006,7 hPa 0,0 l/m 0 min 0 min 216 W/m 43,9 km/h (6 Bft)
28.07.2015 15:46 18,3 C 17,2 C 69 % 0 lf 1006,6 hPa 0,0 l/m 0 min 0 min 187 W/m 39,7 km/h (6 Bft)
28.07.2015 15:48 18,3 C 16,7 C 68 % 0 lf 1006,6 hPa 0,0 l/m 0 min 0 min 168 W/m 35,6 km/h (5 Bft)
28.07.2015 15:50 18,2 C 16,7 C 69 % 0 lf 1006,6 hPa 0,0 l/m 0 min 0 min 149 W/m 41,8 km/h (6 Bft)
28.07.2015 15:52 18,1 C 16,7 C 69 % 0 lf 1006,5 hPa 0,0 l/m 0 min 0 min 160 W/m 35,6 km/h (5 Bft)
28.07.2015 15:54 18,1 C 16,7 C 69 % 0 lf 1006,5 hPa 0,0 l/m 0 min 0 min 177 W/m 41,8 km/h (6 Bft)
28.07.2015 15:56 17,9 C 16,7 C 70 % 0 lf 1006,6 hPa 0,0 l/m 0 min 0 min 197 W/m 27,2 km/h (4 Bft)
28.07.2015 15:58 17,9 C 16,7 C 70 % 0 lf 1006,5 hPa 0,0 l/m 0 min 0 min 212 W/m 35,6 km/h (5 Bft)
28.07.2015 16:00 17,9 C 16,7 C 70 % 0 lf 1006,6 hPa 0,0 l/m 0 min 0 min 195 W/m 41,8 km/h (6 Bft)
28.07.2015 16:02 17,8 C 16,7 C 70 % 0 lf 1006,5 hPa 0,0 l/m 0 min 0 min 201 W/m 29,3 km/h (5 Bft)
28.07.2015 16:04 17,8 C 16,7 C 70 % 0 lf 1006,6 hPa 0,0 l/m 0 min 0 min 185 W/m 33,5 km/h (5 Bft)
28.07.2015 16:06 17,8 C 16,7 C 71 % 0 lf 1006,6 hPa 0,0 l/m 0 min 0 min 140 W/m 27,2 km/h (4 Bft)
28.07.2015 16:08 17,7 C 16,7 C 71 % 0 lf 1006,6 hPa 0,0 l/m 0 min 0 min 146 W/m 41,8 km/h (6 Bft)
28.07.2015 16:10 17,7 C 16,7 C 71 % 0 lf 1006,5 hPa 0,0 l/m 0 min 0 min 166 W/m 37,7 km/h (5 Bft)
28.07.2015 16:12 17,7 C 16,7 C 71 % 0 lf 1006,5 hPa 0,0 l/m 0 min 0 min 173 W/m 37,7 km/h (5 Bft)
28.07.2015 16:14 17,6 C 16,7 C 71 % 0 lf 1006,5 hPa 0,0 l/m 0 min 0 min 203 W/m 37,7 km/h (5 Bft)
28.07.2015 16:16 17,6 C 16,7 C 71 % 0 lf 1006,6 hPa 0,0 l/m 0 min 0 min 219 W/m 31,4 km/h (5 Bft)
28.07.2015 16:18 17,6 C 16,7 C 71 % 0 lf 1006,6 hPa 0,0 l/m 0 min 0 min 216 W/m 29,3 km/h (5 Bft)
28.07.2015 16:20 17,6 C 16,7 C 71 % 0 lf 1006,5 hPa 0,0 l/m 0 min 0 min 224 W/m 29,3 km/h (5 Bft)
28.07.2015 16:22 17,7 C 17,2 C 71 % 0 lf 1006,6 hPa 0,0 l/m 0 min 0 min 271 W/m 31,4 km/h (5 Bft)
28.07.2015 16:24 17,7 C 17,2 C 72 % 0 lf 1006,5 hPa 0,0 l/m 0 min 0 min 286 W/m 18,8 km/h (3 Bft)
28.07.2015 16:26 17,8 C 17,2 C 72 % 0 lf 1006,5 hPa 0,0 l/m 0 min 0 min 271 W/m 27,2 km/h (4 Bft)
28.07.2015 16:28 17,8 C 17,2 C 71 % 0 lf 1006,5 hPa 0,0 l/m 0 min 0 min 269 W/m 27,2 km/h (4 Bft)
28.07.2015 16:30 17,8 C 17,2 C 71 % 0 lf 1006,4 hPa 0,0 l/m 0 min 0 min 229 W/m 27,2 km/h (4 Bft)
28.07.2015 16:32 17,8 C 17,2 C 71 % 0 lf 1006,5 hPa 0,0 l/m 0 min 0 min 203 W/m 27,2 km/h (4 Bft)
28.07.2015 16:34 17,9 C 17,2 C 71 % 0 lf 1006,5 hPa 0,0 l/m 0 min 0 min 185 W/m 43,9 km/h (6 Bft)
28.07.2015 16:36 17,8 C 16,7 C 70 % 0 lf 1006,6 hPa 0,0 l/m 0 min 0 min 167 W/m 27,2 km/h (4 Bft)
28.07.2015 16:38 17,9 C 16,7 C 70 % 0 lf 1006,6 hPa 0,0 l/m 0 min 0 min 157 W/m 31,4 km/h (5 Bft)
28.07.2015 16:40 17,8 C 16,7 C 69 % 0 lf 1006,6 hPa 0,0 l/m 0 min 0 min 126 W/m 25,1 km/h (4 Bft)
28.07.2015 16:42 17,8 C 16,7 C 70 % 0 lf 1006,5 hPa 0,0 l/m 0 min 0 min 98 W/m 20,9 km/h (4 Bft)
28.07.2015 16:44 17,7 C 16,1 C 70 % 0 lf 1006,6 hPa 0,0 l/m 0 min 0 min 80 W/m 31,4 km/h (5 Bft)
28.07.2015 16:46 17,7 C 16,1 C 70 % 0 lf 1006,6 hPa 0,0 l/m 0 min 0 min 81 W/m 37,7 km/h (5 Bft)
28.07.2015 16:48 17,6 C 16,1 C 70 % 0 lf 1006,6 hPa 0,0 l/m 0 min 0 min 85 W/m 35,6 km/h (5 Bft)
28.07.2015 16:50 17,6 C 16,1 C 70 % 0 lf 1006,5 hPa 0,0 l/m 0 min 0 min 93 W/m 31,4 km/h (5 Bft)
28.07.2015 16:52 17,5 C 16,1 C 71 % 0 lf 1006,6 hPa 0,0 l/m 0 min 0 min 95 W/m 23,0 km/h (4 Bft)
28.07.2015 16:54 17,4 C 16,1 C 71 % 0 lf 1006,7 hPa 0,0 l/m 0 min 0 min 84 W/m 27,2 km/h (4 Bft)
28.07.2015 16:56 17,4 C 16,1 C 71 % 0 lf 1006,7 hPa 0,0 l/m 0 min 0 min 114 W/m 23,0 km/h (4 Bft)
28.07.2015 16:58 17,4 C 16,1 C 71 % 0 lf 1006,7 hPa 0,0 l/m 0 min 0 min 149 W/m 25,1 km/h (4 Bft)
28.07.2015 17:00 17,4 C 16,7 C 72 % 0 lf 1006,7 hPa 0,0 l/m 0 min 0 min 160 W/m 23,0 km/h (4 Bft)
28.07.2015 17:02 17,4 C 16,7 C 72 % 0 lf 1006,6 hPa 0,0 l/m 0 min 0 min 159 W/m 31,4 km/h (5 Bft)
28.07.2015 17:04 17,4 C 16,7 C 72 % 0 lf 1006,7 hPa 0,0 l/m 0 min 0 min 153 W/m 18,8 km/h (3 Bft)
28.07.2015 17:06 17,4 C 16,7 C 72 % 0 lf 1006,7 hPa 0,0 l/m 0 min 0 min 171 W/m 18,8 km/h (3 Bft)
28.07.2015 17:08 17,4 C 16,7 C 72 % 0 lf 1006,7 hPa 0,0 l/m 0 min 0 min 201 W/m 31,4 km/h (5 Bft)
28.07.2015 17:10 17,4 C 16,7 C 72 % 0 lf 1006,7 hPa 0,0 l/m 0 min 0 min 221 W/m 27,2 km/h (4 Bft)
28.07.2015 17:12 17,4 C 16,7 C 72 % 0 lf 1006,7 hPa 0,0 l/m 0 min 0 min 243 W/m 23,0 km/h (4 Bft)
28.07.2015 17:14 17,4 C 16,7 C 73 % 0 lf 1006,7 hPa 0,0 l/m 0 min 0 min 256 W/m 20,9 km/h (4 Bft)
28.07.2015 17:16 17,5 C 17,2 C 73 % 0 lf 1006,6 hPa 0,0 l/m 0 min 0 min 267 W/m 23,0 km/h (4 Bft)
28.07.2015 17:18 17,5 C 17,2 C 72 % 0 lf 1006,6 hPa 0,0 l/m 0 min 0 min 277 W/m 27,2 km/h (4 Bft)
28.07.2015 17:20 17,6 C 17,2 C 73 % 0 lf 1006,6 hPa 0,0 l/m 0 min 0 min 278 W/m 27,2 km/h (4 Bft)
28.07.2015 17:22 17,6 C 17,2 C 72 % 0 lf 1006,7 hPa 0,0 l/m 0 min 0 min 245 W/m 33,5 km/h (5 Bft)
28.07.2015 17:24 17,7 C 17,2 C 72 % 0 lf 1006,6 hPa 0,0 l/m 0 min 0 min 230 W/m 25,1 km/h (4 Bft)
28.07.2015 17:26 17,7 C 17,2 C 72 % 0 lf 1006,5 hPa 0,0 l/m 0 min 0 min 239 W/m 25,1 km/h (4 Bft)
28.07.2015 17:28 17,7 C 17,2 C 72 % 0 lf 1006,6 hPa 0,0 l/m 0 min 0 min 265 W/m 20,9 km/h (4 Bft)
28.07.2015 17:30 17,7 C 17,2 C 72 % 0 lf 1006,6 hPa 0,0 l/m 0 min 0 min 264 W/m 18,8 km/h (3 Bft)
28.07.2015 17:32 17,8 C 17,2 C 72 % 0 lf 1006,6 hPa 0,0 l/m 0 min 0 min 264 W/m 27,2 km/h (4 Bft)
28.07.2015 17:34 17,8 C 17,2 C 71 % 0 lf 1006,7 hPa 0,0 l/m 2 min 0 min 285 W/m 39,7 km/h (6 Bft)
28.07.2015 17:36 17,8 C 17,2 C 70 % 0 lf 1006,6 hPa 0,0 l/m 2 min 0 min 276 W/m 29,3 km/h (5 Bft)
28.07.2015 17:38 17,8 C 17,2 C 70 % 0 lf 1006,6 hPa 0,0 l/m 0 min 0 min 242 W/m 25,1 km/h (4 Bft)
28.07.2015 17:40 17,9 C 17,2 C 71 % 0 lf 1006,6 hPa 0,0 l/m 0 min 0 min 229 W/m 41,8 km/h (6 Bft)
28.07.2015 17:42 17,9 C 17,2 C 70 % 0 lf 1006,6 hPa 0,0 l/m 0 min 0 min 216 W/m 37,7 km/h (5 Bft)
28.07.2015 17:44 17,9 C 17,2 C 70 % 0 lf 1006,6 hPa 0,0 l/m 0 min 0 min 217 W/m 23,0 km/h (4 Bft)
28.07.2015 17:46 17,9 C 17,2 C 70 % 0 lf 1006,6 hPa 0,0 l/m 0 min 0 min 246 W/m 33,5 km/h (5 Bft)
28.07.2015 17:48 17,9 C 17,2 C 70 % 0 lf 1006,5 hPa 0,0 l/m 2 min 0 min 260 W/m 31,4 km/h (5 Bft)
28.07.2015 17:50 17,9 C 17,2 C 70 % 0 lf 1006,5 hPa 0,0 l/m 2 min 0 min 392 W/m 31,4 km/h (5 Bft)
28.07.2015 17:52 18,0 C 17,8 C 70 % 0 lf 1006,5 hPa 0,0 l/m 2 min 0 min 363 W/m 23,0 km/h (4 Bft)
28.07.2015 17:54 18,1 C 17,8 C 71 % 0 lf 1006,5 hPa 0,0 l/m 2 min 0 min 309 W/m 23,0 km/h (4 Bft)
28.07.2015 17:56 18,1 C 17,8 C 71 % 0 lf 1006,3 hPa 0,0 l/m 2 min 0 min 334 W/m 33,5 km/h (5 Bft)
28.07.2015 17:58 18,2 C 17,8 C 70 % 0 lf 1006,4 hPa 0,0 l/m 2 min 0 min 327 W/m 33,5 km/h (5 Bft)
28.07.2015 18:00 18,2 C 17,8 C 70 % 0 lf 1006,4 hPa 0,0 l/m 2 min 0 min 246 W/m 29,3 km/h (5 Bft)
28.07.2015 18:02 18,3 C 17,2 C 69 % 0 lf 1006,5 hPa 0,0 l/m 0 min 0 min 198 W/m 31,4 km/h (5 Bft)
28.07.2015 18:05 18,3 C 17,2 C 69 % 0 lf 1006,5 hPa 0,0 l/m 0 min 0 min 188 W/m 31,4 km/h (5 Bft)
28.07.2015 18:06 18,3 C 17,2 C 70 % 0 lf 1006,5 hPa 0,0 l/m 0 min 0 min 182 W/m 31,4 km/h (5 Bft)
28.07.2015 18:08 18,3 C 17,2 C 69 % 0 lf 1006,4 hPa 0,0 l/m 0 min 0 min 196 W/m 23,0 km/h (4 Bft)
28.07.2015 18:10 18,3 C 17,2 C 68 % 0 lf 1006,4 hPa 0,0 l/m 0 min 0 min 198 W/m 27,2 km/h (4 Bft)
28.07.2015 18:12 18,3 C 17,2 C 69 % 0 lf 1006,5 hPa 0,0 l/m 0 min 0 min 188 W/m 20,9 km/h (4 Bft)
28.07.2015 18:14 18,3 C 17,2 C 68 % 0 lf 1006,3 hPa 0,0 l/m 0 min 0 min 173 W/m 27,2 km/h (4 Bft)
28.07.2015 18:16 18,2 C 17,2 C 67 % 0 lf 1006,4 hPa 0,0 l/m 0 min 0 min 159 W/m 29,3 km/h (5 Bft)
28.07.2015 18:18 18,2 C 17,2 C 68 % 0 lf 1006,4 hPa 0,0 l/m 0 min 0 min 149 W/m 27,2 km/h (4 Bft)
28.07.2015 18:20 18,2 C 17,2 C 68 % 0 lf 1006,5 hPa 0,0 l/m 0 min 0 min 146 W/m 20,9 km/h (4 Bft)
28.07.2015 18:22 18,2 C 16,7 C 67 % 0 lf 1006,6 hPa 0,0 l/m 0 min 0 min 143 W/m 27,2 km/h (4 Bft)
28.07.2015 18:24 18,2 C 16,7 C 67 % 0 lf 1006,6 hPa 0,0 l/m 0 min 0 min 147 W/m 18,8 km/h (3 Bft)
28.07.2015 18:26 18,2 C 16,7 C 67 % 0 lf 1006,6 hPa 0,0 l/m 0 min 0 min 146 W/m 27,2 km/h (4 Bft)
28.07.2015 18:28 18,1 C 16,7 C 67 % 0 lf 1006,7 hPa 0,0 l/m 0 min 0 min 135 W/m 35,6 km/h (5 Bft)
28.07.2015 18:30 18,1 C 16,7 C 66 % 0 lf 1006,7 hPa 0,0 l/m 0 min 0 min 145 W/m 33,5 km/h (5 Bft)
28.07.2015 18:32 18,1 C 16,7 C 66 % 0 lf 1006,6 hPa 0,0 l/m 0 min 0 min 164 W/m 23,0 km/h (4 Bft)
28.07.2015 18:34 18,1 C 16,7 C 66 % 0 lf 1006,6 hPa 0,0 l/m 0 min 0 min 174 W/m 35,6 km/h (5 Bft)
28.07.2015 18:36 18,1 C 16,7 C 65 % 0 lf 1006,6 hPa 0,0 l/m 0 min 0 min 184 W/m 25,1 km/h (4 Bft)
28.07.2015 18:38 18,1 C 16,7 C 65 % 0 lf 1006,6 hPa 0,0 l/m 0 min 0 min 177 W/m 31,4 km/h (5 Bft)
28.07.2015 18:40 18,1 C 16,7 C 65 % 0 lf 1006,6 hPa 0,0 l/m 0 min 0 min 168 W/m 25,1 km/h (4 Bft)
28.07.2015 18:42 18,1 C 16,7 C 65 % 0 lf 1006,6 hPa 0,0 l/m 0 min 0 min 160 W/m 29,3 km/h (5 Bft)
28.07.2015 18:44 18,0 C 16,7 C 66 % 0 lf 1006,6 hPa 0,0 l/m 0 min 0 min 154 W/m 23,0 km/h (4 Bft)
28.07.2015 18:46 18,0 C 16,7 C 66 % 0 lf 1006,6 hPa 0,0 l/m 0 min 0 min 145 W/m 18,8 km/h (3 Bft)
28.07.2015 18:48 18,0 C 16,7 C 66 % 0 lf 1006,6 hPa 0,0 l/m 0 min 0 min 133 W/m 20,9 km/h (4 Bft)
28.07.2015 18:50 18,0 C 16,7 C 66 % 0 lf 1006,6 hPa 0,0 l/m 0 min 0 min 112 W/m 18,8 km/h (3 Bft)
28.07.2015 18:52 18,1 C 16,7 C 66 % 0 lf 1006,6 hPa 0,0 l/m 0 min 0 min 94 W/m 16,7 km/h (3 Bft)
28.07.2015 18:54 18,0 C 16,7 C 66 % 0 lf 1006,6 hPa 0,0 l/m 0 min 0 min 84 W/m 23,0 km/h (4 Bft)
28.07.2015 18:56 18,0 C 16,7 C 66 % 0 lf 1006,6 hPa 0,0 l/m 0 min 0 min 78 W/m 20,9 km/h (4 Bft)
28.07.2015 18:58 18,0 C 16,1 C 66 % 0 lf 1006,7 hPa 0,0 l/m 0 min 0 min 76 W/m 23,0 km/h (4 Bft)
28.07.2015 19:00 17,9 C 16,1 C 66 % 0 lf 1006,6 hPa 0,0 l/m 0 min 0 min 76 W/m 23,0 km/h (4 Bft)
28.07.2015 19:02 17,9 C 16,1 C 66 % 0 lf 1006,6 hPa 0,0 l/m 0 min 0 min 77 W/m 16,7 km/h (3 Bft)
28.07.2015 19:04 17,9 C 16,1 C 67 % 0 lf 1006,6 hPa 0,0 l/m 0 min 0 min 78 W/m 23,0 km/h (4 Bft)
28.07.2015 19:06 17,9 C 16,1 C 67 % 0 lf 1006,6 hPa 0,0 l/m 0 min 0 min 83 W/m 20,9 km/h (4 Bft)
28.07.2015 19:08 17,8 C 16,1 C 67 % 0 lf 1006,7 hPa 0,0 l/m 0 min 0 min 82 W/m 20,9 km/h (4 Bft)
28.07.2015 19:10 17,8 C 16,1 C 67 % 0 lf 1006,7 hPa 0,0 l/m 0 min 0 min 79 W/m 25,1 km/h (4 Bft)
28.07.2015 19:12 17,8 C 16,1 C 66 % 0 lf 1006,7 hPa 0,0 l/m 0 min 0 min 77 W/m 29,3 km/h (5 Bft)
28.07.2015 19:14 17,7 C 16,1 C 65 % 0 lf 1006,6 hPa 0,0 l/m 0 min 0 min 77 W/m 35,6 km/h (5 Bft)
28.07.2015 19:16 17,7 C 16,1 C 65 % 0 lf 1006,7 hPa 0,0 l/m 0 min 0 min 76 W/m 27,2 km/h (4 Bft)
28.07.2015 19:18 17,7 C 16,1 C 65 % 0 lf 1006,8 hPa 0,0 l/m 0 min 0 min 82 W/m 29,3 km/h (5 Bft)
28.07.2015 19:20 17,7 C 16,1 C 65 % 0 lf 1006,7 hPa 0,0 l/m 0 min 0 min 97 W/m 37,7 km/h (5 Bft)
28.07.2015 19:22 17,7 C 16,1 C 65 % 0 lf 1006,7 hPa 0,0 l/m 0 min 0 min 121 W/m 29,3 km/h (5 Bft)
28.07.2015 19:24 17,7 C 16,7 C 65 % 0 lf 1006,8 hPa 0,0 l/m 2 min 0 min 147 W/m 33,5 km/h (5 Bft)
28.07.2015 19:26 17,7 C 16,7 C 65 % 0 lf 1006,7 hPa 0,0 l/m 2 min 0 min 169 W/m 27,2 km/h (4 Bft)
28.07.2015 19:28 17,7 C 16,7 C 65 % 0 lf 1006,8 hPa 0,0 l/m 2 min 0 min 146 W/m 33,5 km/h (5 Bft)
28.07.2015 19:30 17,7 C 16,7 C 65 % 0 lf 1006,8 hPa 0,0 l/m 0 min 0 min 133 W/m 29,3 km/h (5 Bft)
28.07.2015 19:32 17,7 C 16,7 C 65 % 0 lf 1006,7 hPa 0,0 l/m 2 min 0 min 134 W/m 31,4 km/h (5 Bft)
28.07.2015 19:34 17,7 C 16,7 C 65 % 0 lf 1006,8 hPa 0,0 l/m 2 min 0 min 141 W/m 27,2 km/h (4 Bft)
28.07.2015 19:36 17,7 C 16,7 C 65 % 0 lf 1006,8 hPa 0,0 l/m 2 min 0 min 171 W/m 20,9 km/h (4 Bft)
28.07.2015 19:38 17,7 C 16,7 C 65 % 0 lf 1006,8 hPa 0,0 l/m 2 min 0 min 229 W/m 23,0 km/h (4 Bft)
28.07.2015 19:40 17,7 C 16,7 C 65 % 0 lf 1006,8 hPa 0,0 l/m 2 min 0 min 205 W/m 20,9 km/h (4 Bft)
28.07.2015 19:42 17,7 C 16,7 C 65 % 0 lf 1006,8 hPa 0,0 l/m 2 min 0 min 239 W/m 29,3 km/h (5 Bft)
28.07.2015 19:44 17,7 C 16,7 C 64 % 0 lf 1006,8 hPa 0,0 l/m 2 min 0 min 236 W/m 31,4 km/h (5 Bft)
28.07.2015 19:46 17,8 C 16,7 C 64 % 0 lf 1006,8 hPa 0,0 l/m 2 min 0 min 251 W/m 29,3 km/h (5 Bft)
28.07.2015 19:48 17,8 C 16,7 C 65 % 0 lf 1006,8 hPa 0,0 l/m 2 min 0 min 263 W/m 31,4 km/h (5 Bft)
28.07.2015 19:50 17,8 C 16,7 C 65 % 0 lf 1006,8 hPa 0,0 l/m 2 min 0 min 245 W/m 31,4 km/h (5 Bft)
28.07.2015 19:52 17,8 C 16,7 C 65 % 0 lf 1006,8 hPa 0,0 l/m 2 min 0 min 220 W/m 27,2 km/h (4 Bft)
28.07.2015 19:54 17,8 C 16,7 C 64 % 0 lf 1006,8 hPa 0,0 l/m 2 min 0 min 217 W/m 29,3 km/h (5 Bft)
28.07.2015 19:56 17,9 C 16,7 C 64 % 0 lf 1006,8 hPa 0,0 l/m 2 min 0 min 207 W/m 33,5 km/h (5 Bft)
28.07.2015 19:58 17,9 C 16,7 C 64 % 0 lf 1006,9 hPa 0,0 l/m 2 min 0 min 197 W/m 31,4 km/h (5 Bft)
28.07.2015 20:00 17,9 C 16,7 C 64 % 0 lf 1006,8 hPa 0,0 l/m 2 min 0 min 203 W/m 39,7 km/h (6 Bft)
28.07.2015 20:02 17,9 C 16,7 C 62 % 0 lf 1006,9 hPa 0,0 l/m 2 min 0 min 190 W/m 37,7 km/h (5 Bft)
28.07.2015 20:04 17,9 C 16,7 C 62 % 0 lf 1006,9 hPa 0,0 l/m 2 min 0 min 177 W/m 35,6 km/h (5 Bft)
28.07.2015 20:06 17,8 C 16,1 C 63 % 0 lf 1006,8 hPa 0,0 l/m 2 min 0 min 147 W/m 33,5 km/h (5 Bft)
28.07.2015 20:08 17,8 C 16,1 C 63 % 0 lf 1006,8 hPa 0,0 l/m 2 min 0 min 120 W/m 29,3 km/h (5 Bft)
28.07.2015 20:10 17,8 C 16,1 C 62 % 0 lf 1006,8 hPa 0,0 l/m 0 min 0 min 73 W/m 41,8 km/h (6 Bft)
28.07.2015 20:12 17,7 C 16,1 C 62 % 0 lf 1006,8 hPa 0,0 l/m 0 min 0 min 62 W/m 35,6 km/h (5 Bft)
28.07.2015 20:14 17,7 C 15,6 C 61 % 0 lf 1006,9 hPa 0,0 l/m 0 min 0 min 52 W/m 37,7 km/h (5 Bft)
28.07.2015 20:16 17,6 C 15,6 C 61 % 0 lf 1006,8 hPa 0,0 l/m 0 min 0 min 45 W/m 41,8 km/h (6 Bft)
28.07.2015 20:18 17,6 C 15,6 C 62 % 0 lf 1006,8 hPa 0,0 l/m 0 min 0 min 42 W/m 25,1 km/h (4 Bft)
28.07.2015 20:20 17,5 C 15,6 C 62 % 0 lf 1006,8 hPa 0,0 l/m 0 min 0 min 41 W/m 25,1 km/h (4 Bft)
28.07.2015 20:22 17,4 C 15,6 C 62 % 0 lf 1006,8 hPa 0,0 l/m 0 min 0 min 60 W/m 31,4 km/h (5 Bft)
28.07.2015 20:24 17,4 C 15,6 C 62 % 0 lf 1006,8 hPa 0,0 l/m 0 min 0 min 52 W/m 20,9 km/h (4 Bft)
28.07.2015 20:26 17,3 C 15,6 C 62 % 0 lf 1006,9 hPa 0,0 l/m 2 min 0 min 72 W/m 20,9 km/h (4 Bft)
28.07.2015 20:28 17,3 C 15,6 C 62 % 0 lf 1007,0 hPa 0,0 l/m 2 min 0 min 73 W/m 29,3 km/h (5 Bft)
28.07.2015 20:30 17,2 C 15,6 C 63 % 0 lf 1007,0 hPa 0,0 l/m 2 min 0 min 69 W/m 20,9 km/h (4 Bft)
28.07.2015 20:32 17,2 C 15,0 C 63 % 0 lf 1006,9 hPa 0,0 l/m 2 min 0 min 62 W/m 20,9 km/h (4 Bft)
28.07.2015 20:34 17,2 C 15,0 C 63 % 0 lf 1007,0 hPa 0,0 l/m 0 min 0 min 52 W/m 20,9 km/h (4 Bft)
28.07.2015 20:36 17,1 C 15,0 C 63 % 0 lf 1007,0 hPa 0,0 l/m 0 min 0 min 40 W/m 16,7 km/h (3 Bft)
28.07.2015 20:38 17,1 C 15,0 C 63 % 0 lf 1007,0 hPa 0,0 l/m 0 min 0 min 36 W/m 16,7 km/h (3 Bft)
28.07.2015 20:40 17,1 C 15,0 C 63 % 0 lf 1007,1 hPa 0,0 l/m 0 min 0 min 34 W/m 14,6 km/h (3 Bft)
28.07.2015 20:42 17,0 C 15,0 C 63 % 0 lf 1007,0 hPa 0,0 l/m 0 min 0 min 33 W/m 20,9 km/h (4 Bft)
28.07.2015 20:44 16,9 C 15,0 C 63 % 0 lf 1007,1 hPa 0,0 l/m 0 min 0 min 32 W/m 18,8 km/h (3 Bft)
28.07.2015 20:46 16,9 C 15,0 C 64 % 0 lf 1007,1 hPa 0,0 l/m 0 min 0 min 32 W/m 12,6 km/h (3 Bft)
28.07.2015 20:48 16,9 C 15,0 C 63 % 0 lf 1007,1 hPa 0,0 l/m 0 min 0 min 30 W/m 29,3 km/h (5 Bft)
28.07.2015 20:50 16,8 C 15,0 C 63 % 0 lf 1007,1 hPa 0,0 l/m 0 min 0 min 28 W/m 31,4 km/h (5 Bft)
28.07.2015 20:52 16,7 C 15,0 C 63 % 0 lf 1007,1 hPa 0,0 l/m 0 min 0 min 28 W/m 18,8 km/h (3 Bft)
28.07.2015 20:54 16,7 C 15,0 C 63 % 0 lf 1007,2 hPa 0,0 l/m 0 min 0 min 28 W/m 20,9 km/h (4 Bft)
28.07.2015 20:56 16,7 C 14,4 C 63 % 0 lf 1007,2 hPa 0,0 l/m 0 min 0 min 26 W/m 20,9 km/h (4 Bft)
28.07.2015 20:58 16,6 C 14,4 C 63 % 0 lf 1007,2 hPa 0,0 l/m 0 min 0 min 25 W/m 18,8 km/h (3 Bft)
28.07.2015 21:00 16,6 C 14,4 C 63 % 0 lf 1007,2 hPa 0,0 l/m 0 min 0 min 24 W/m 35,6 km/h (5 Bft)
28.07.2015 21:02 16,6 C 14,4 C 63 % 0 lf 1007,1 hPa 0,0 l/m 0 min 0 min 21 W/m 20,9 km/h (4 Bft)
28.07.2015 21:04 16,5 C 14,4 C 63 % 0 lf 1007,1 hPa 0,0 l/m 0 min 0 min 19 W/m 23,0 km/h (4 Bft)
28.07.2015 21:06 16,4 C 14,4 C 63 % 0 lf 1007,2 hPa 0,0 l/m 0 min 0 min 18 W/m 23,0 km/h (4 Bft)
28.07.2015 21:08 16,4 C 14,4 C 63 % 0 lf 1007,2 hPa 0,0 l/m 0 min 0 min 18 W/m 18,8 km/h (3 Bft)
28.07.2015 21:10 16,4 C 14,4 C 63 % 0 lf 1007,2 hPa 0,0 l/m 0 min 0 min 16 W/m 14,6 km/h (3 Bft)
28.07.2015 21:12 16,3 C 14,4 C 64 % 0 lf 1007,3 hPa 0,0 l/m 0 min 0 min 14 W/m 18,8 km/h (3 Bft)
28.07.2015 21:14 16,3 C 14,4 C 64 % 0 lf 1007,2 hPa 0,0 l/m 0 min 0 min 12 W/m 16,7 km/h (3 Bft)
28.07.2015 21:16 16,3 C 13,9 C 64 % 0 lf 1007,3 hPa 0,0 l/m 0 min 0 min 11 W/m 14,6 km/h (3 Bft)
28.07.2015 21:18 16,2 C 13,9 C 64 % 0 lf 1007,2 hPa 0,0 l/m 0 min 0 min 11 W/m 20,9 km/h (4 Bft)
28.07.2015 21:20 16,2 C 13,9 C 64 % 0 lf 1007,3 hPa 0,0 l/m 0 min 0 min 10 W/m 18,8 km/h (3 Bft)
28.07.2015 21:22 16,1 C 13,9 C 65 % 0 lf 1007,2 hPa 0,0 l/m 0 min 0 min 9 W/m 16,7 km/h (3 Bft)
28.07.2015 21:24 16,1 C 13,9 C 64 % 0 lf 1007,2 hPa 0,0 l/m 0 min 0 min 9 W/m 31,4 km/h (5 Bft)
28.07.2015 21:26 16,0 C 13,9 C 64 % 0 lf 1007,2 hPa 0,0 l/m 0 min 0 min 7 W/m 23,0 km/h (4 Bft)
28.07.2015 21:28 16,0 C 13,9 C 64 % 0 lf 1007,3 hPa 0,0 l/m 0 min 0 min 7 W/m 20,9 km/h (4 Bft)
28.07.2015 21:30 15,9 C 13,9 C 65 % 0 lf 1007,3 hPa 0,0 l/m 0 min 0 min 7 W/m 23,0 km/h (4 Bft)
28.07.2015 21:32 15,9 C 13,9 C 65 % 0 lf 1007,4 hPa 0,0 l/m 0 min 0 min 5 W/m 20,9 km/h (4 Bft)
28.07.2015 21:34 15,9 C 13,9 C 65 % 0 lf 1007,4 hPa 0,0 l/m 0 min 0 min 5 W/m 16,7 km/h (3 Bft)
28.07.2015 21:36 15,8 C 13,9 C 65 % 0 lf 1007,4 hPa 0,0 l/m 0 min 0 min 5 W/m 14,6 km/h (3 Bft)
28.07.2015 21:38 15,8 C 13,9 C 65 % 0 lf 1007,4 hPa 0,0 l/m 0 min 0 min 2 W/m 18,8 km/h (3 Bft)
28.07.2015 21:40 15,8 C 13,9 C 66 % 0 lf 1007,3 hPa 0,0 l/m 0 min 0 min 0 W/m 12,6 km/h (3 Bft)
28.07.2015 21:42 15,7 C 13,9 C 66 % 0 lf 1007,4 hPa 0,0 l/m 0 min 0 min 0 W/m 16,7 km/h (3 Bft)
28.07.2015 21:44 15,7 C 13,9 C 66 % 0 lf 1007,5 hPa 0,0 l/m 0 min 0 min 0 W/m 16,7 km/h (3 Bft)
28.07.2015 21:46 15,7 C 13,9 C 66 % 0 lf 1007,4 hPa 0,0 l/m 0 min 0 min 0 W/m 18,8 km/h (3 Bft)
28.07.2015 21:48 15,6 C 13,9 C 66 % 0 lf 1007,4 hPa 0,0 l/m 0 min 0 min 0 W/m 18,8 km/h (3 Bft)
28.07.2015 21:50 15,6 C 13,9 C 66 % 0 lf 1007,4 hPa 0,0 l/m 0 min 0 min 0 W/m 20,9 km/h (4 Bft)
28.07.2015 21:52 15,5 C 13,9 C 66 % 0 lf 1007,5 hPa 0,0 l/m 0 min 0 min 0 W/m 20,9 km/h (4 Bft)
28.07.2015 21:54 15,4 C 13,9 C 67 % 0 lf 1007,5 hPa 0,0 l/m 0 min 0 min 0 W/m 18,8 km/h (3 Bft)
28.07.2015 21:56 15,4 C 13,3 C 67 % 0 lf 1007,5 hPa 0,0 l/m 0 min 0 min 0 W/m 16,7 km/h (3 Bft)
28.07.2015 21:58 15,4 C 13,3 C 67 % 0 lf 1007,5 hPa 0,0 l/m 0 min 0 min 0 W/m 16,7 km/h (3 Bft)
28.07.2015 22:00 15,3 C 13,3 C 67 % 0 lf 1007,5 hPa 0,0 l/m 0 min 0 min 0 W/m 20,9 km/h (4 Bft)
28.07.2015 22:02 15,3 C 13,3 C 67 % 0 lf 1007,6 hPa 0,0 l/m 0 min 0 min 0 W/m 23,0 km/h (4 Bft)
28.07.2015 22:04 15,3 C 13,3 C 67 % 0 lf 1007,6 hPa 0,0 l/m 0 min 0 min 0 W/m 23,0 km/h (4 Bft)
28.07.2015 22:06 15,2 C 13,3 C 67 % 0 lf 1007,6 hPa 0,0 l/m 0 min 0 min 0 W/m 18,8 km/h (3 Bft)
28.07.2015 22:08 15,2 C 13,3 C 67 % 0 lf 1007,6 hPa 0,0 l/m 0 min 0 min 0 W/m 16,7 km/h (3 Bft)
28.07.2015 22:10 15,2 C 13,3 C 67 % 0 lf 1007,6 hPa 0,0 l/m 0 min 0 min 0 W/m 16,7 km/h (3 Bft)
28.07.2015 22:12 15,2 C 13,3 C 67 % 0 lf 1007,6 hPa 0,0 l/m 0 min 0 min 0 W/m 20,9 km/h (4 Bft)
28.07.2015 22:14 15,1 C 13,3 C 68 % 0 lf 1007,6 hPa 0,0 l/m 0 min 0 min 0 W/m 14,6 km/h (3 Bft)
28.07.2015 22:16 15,1 C 13,3 C 68 % 0 lf 1007,6 hPa 0,0 l/m 0 min 0 min 0 W/m 14,6 km/h (3 Bft)
28.07.2015 22:18 15,1 C 13,3 C 68 % 0 lf 1007,7 hPa 0,0 l/m 0 min 0 min 0 W/m 18,8 km/h (3 Bft)
28.07.2015 22:20 15,0 C 12,8 C 68 % 0 lf 1007,7 hPa 0,0 l/m 0 min 0 min 0 W/m 14,6 km/h (3 Bft)
28.07.2015 22:22 15,0 C 12,8 C 69 % 0 lf 1007,6 hPa 0,0 l/m 0 min 0 min 0 W/m 20,9 km/h (4 Bft)
28.07.2015 22:24 14,9 C 12,8 C 69 % 0 lf 1007,7 hPa 0,0 l/m 0 min 0 min 0 W/m 14,6 km/h (3 Bft)
28.07.2015 22:26 14,9 C 12,8 C 69 % 0 lf 1007,7 hPa 0,0 l/m 0 min 0 min 0 W/m 18,8 km/h (3 Bft)
28.07.2015 22:28 14,8 C 12,8 C 69 % 0 lf 1007,7 hPa 0,0 l/m 0 min 0 min 0 W/m 18,8 km/h (3 Bft)
28.07.2015 22:30 14,8 C 12,8 C 69 % 0 lf 1007,7 hPa 0,0 l/m 0 min 0 min 0 W/m 25,1 km/h (4 Bft)
28.07.2015 22:32 14,8 C 12,8 C 70 % 0 lf 1007,8 hPa 0,0 l/m 0 min 0 min 0 W/m 16,7 km/h (3 Bft)
28.07.2015 22:34 14,7 C 12,8 C 70 % 0 lf 1007,8 hPa 0,0 l/m 0 min 0 min 0 W/m 14,6 km/h (3 Bft)
28.07.2015 22:36 14,7 C 12,8 C 70 % 0 lf 1007,7 hPa 0,0 l/m 0 min 0 min 0 W/m 16,7 km/h (3 Bft)
28.07.2015 22:38 14,7 C 12,8 C 70 % 0 lf 1007,7 hPa 0,0 l/m 0 min 0 min 0 W/m 18,8 km/h (3 Bft)
28.07.2015 22:40 14,6 C 12,8 C 70 % 0 lf 1007,8 hPa 0,0 l/m 0 min 0 min 0 W/m 16,7 km/h (3 Bft)
28.07.2015 22:42 14,6 C 12,8 C 70 % 0 lf 1007,7 hPa 0,0 l/m 0 min 0 min 0 W/m 18,8 km/h (3 Bft)
28.07.2015 22:44 14,6 C 12,8 C 70 % 0 lf 1007,8 hPa 0,0 l/m 0 min 0 min 0 W/m 20,9 km/h (4 Bft)
28.07.2015 22:46 14,5 C 12,8 C 71 % 0 lf 1007,8 hPa 0,0 l/m 0 min 0 min 0 W/m 23,0 km/h (4 Bft)
28.07.2015 22:48 14,5 C 12,8 C 71 % 0 lf 1007,7 hPa 0,0 l/m 0 min 0 min 0 W/m 25,1 km/h (4 Bft)
28.07.2015 22:50 14,4 C 12,8 C 71 % 0 lf 1007,8 hPa 0,0 l/m 0 min 0 min 0 W/m 20,9 km/h (4 Bft)
28.07.2015 22:52 14,4 C 12,8 C 71 % 0 lf 1007,7 hPa 0,0 l/m 0 min 0 min 0 W/m 16,7 km/h (3 Bft)
28.07.2015 22:54 14,4 C 12,8 C 71 % 0 lf 1007,7 hPa 0,0 l/m 0 min 0 min 0 W/m 18,8 km/h (3 Bft)
28.07.2015 22:56 14,4 C 12,8 C 71 % 0 lf 1007,7 hPa 0,0 l/m 0 min 0 min 0 W/m 25,1 km/h (4 Bft)
28.07.2015 22:58 14,3 C 12,8 C 71 % 0 lf 1007,7 hPa 0,0 l/m 0 min 0 min 0 W/m 23,0 km/h (4 Bft)
28.07.2015 23:00 14,3 C 12,8 C 71 % 0 lf 1007,7 hPa 0,0 l/m 0 min 0 min 0 W/m 25,1 km/h (4 Bft)
28.07.2015 23:02 14,3 C 12,8 C 71 % 0 lf 1007,7 hPa 0,0 l/m 0 min 0 min 0 W/m 23,0 km/h (4 Bft)
28.07.2015 23:04 14,3 C 12,8 C 71 % 0 lf 1007,7 hPa 0,0 l/m 0 min 0 min 0 W/m 23,0 km/h (4 Bft)
28.07.2015 23:06 14,3 C 12,8 C 72 % 0 lf 1007,8 hPa 0,0 l/m 0 min 0 min 0 W/m 16,7 km/h (3 Bft)
28.07.2015 23:08 14,3 C 12,8 C 72 % 0 lf 1007,8 hPa 0,0 l/m 0 min 0 min 0 W/m 20,9 km/h (4 Bft)
28.07.2015 23:10 14,3 C 12,8 C 72 % 0 lf 1007,8 hPa 0,0 l/m 0 min 0 min 0 W/m 27,2 km/h (4 Bft)
28.07.2015 23:12 14,2 C 12,8 C 72 % 0 lf 1007,8 hPa 0,0 l/m 0 min 0 min 0 W/m 16,7 km/h (3 Bft)
28.07.2015 23:14 14,2 C 12,8 C 72 % 0 lf 1007,7 hPa 0,0 l/m 0 min 0 min 0 W/m 18,8 km/h (3 Bft)
28.07.2015 23:16 14,2 C 12,8 C 72 % 0 lf 1007,8 hPa 0,0 l/m 0 min 0 min 0 W/m 20,9 km/h (4 Bft)
28.07.2015 23:18 14,2 C 12,8 C 72 % 0 lf 1007,8 hPa 0,0 l/m 0 min 0 min 0 W/m 20,9 km/h (4 Bft)
28.07.2015 23:20 14,2 C 12,8 C 72 % 0 lf 1007,8 hPa 0,0 l/m 0 min 0 min 0 W/m 14,6 km/h (3 Bft)
28.07.2015 23:22 14,2 C 12,8 C 72 % 0 lf 1007,8 hPa 0,0 l/m 0 min 0 min 0 W/m 23,0 km/h (4 Bft)
28.07.2015 23:24 14,2 C 12,8 C 72 % 0 lf 1007,8 hPa 0,0 l/m 0 min 0 min 0 W/m 25,1 km/h (4 Bft)
28.07.2015 23:26 14,2 C 12,8 C 73 % 0 lf 1007,8 hPa 0,0 l/m 0 min 0 min 0 W/m 18,8 km/h (3 Bft)
28.07.2015 23:28 14,2 C 12,8 C 73 % 0 lf 1007,8 hPa 0,0 l/m 0 min 0 min 0 W/m 16,7 km/h (3 Bft)
28.07.2015 23:30 14,2 C 12,8 C 73 % 0 lf 1007,8 hPa 0,0 l/m 0 min 0 min 0 W/m 18,8 km/h (3 Bft)
28.07.2015 23:32 14,2 C 12,8 C 73 % 0 lf 1007,8 hPa 0,0 l/m 0 min 0 min 0 W/m 18,8 km/h (3 Bft)
28.07.2015 23:34 14,2 C 12,8 C 73 % 0 lf 1007,8 hPa 0,0 l/m 0 min 0 min 0 W/m 23,0 km/h (4 Bft)
28.07.2015 23:36 14,2 C 12,8 C 73 % 0 lf 1007,8 hPa 0,0 l/m 0 min 0 min 0 W/m 25,1 km/h (4 Bft)
28.07.2015 23:38 14,1 C 12,8 C 73 % 0 lf 1007,9 hPa 0,0 l/m 0 min 0 min 0 W/m 18,8 km/h (3 Bft)
28.07.2015 23:40 14,1 C 12,8 C 73 % 0 lf 1007,8 hPa 0,0 l/m 0 min 0 min 0 W/m 23,0 km/h (4 Bft)
28.07.2015 23:42 14,0 C 12,8 C 73 % 0 lf 1007,8 hPa 0,0 l/m 0 min 0 min 0 W/m 23,0 km/h (4 Bft)
28.07.2015 23:44 14,0 C 12,8 C 73 % 0 lf 1007,8 hPa 0,0 l/m 0 min 0 min 0 W/m 18,8 km/h (3 Bft)
28.07.2015 23:46 14,0 C 12,2 C 73 % 0 lf 1007,8 hPa 0,0 l/m 0 min 0 min 0 W/m 23,0 km/h (4 Bft)
28.07.2015 23:48 13,9 C 12,2 C 73 % 0 lf 1007,8 hPa 0,0 l/m 0 min 0 min 0 W/m 18,8 km/h (3 Bft)
28.07.2015 23:50 13,9 C 12,2 C 73 % 0 lf 1007,8 hPa 0,0 l/m 0 min 0 min 0 W/m 23,0 km/h (4 Bft)
28.07.2015 23:52 13,9 C 12,2 C 73 % 0 lf 1007,9 hPa 0,0 l/m 0 min 0 min 0 W/m 20,9 km/h (4 Bft)
28.07.2015 23:54 13,9 C 12,2 C 73 % 0 lf 1007,9 hPa 0,0 l/m 0 min 0 min 0 W/m 16,7 km/h (3 Bft)
28.07.2015 23:56 13,9 C 12,2 C 73 % 0 lf 1007,9 hPa 0,0 l/m 0 min 0 min 0 W/m 18,8 km/h (3 Bft)
28.07.2015 23:58 13,9 C 12,2 C 73 % 0 lf 1007,9 hPa 0,0 l/m 0 min 0 min 0 W/m 20,9 km/h (4 Bft)
_ Min-Zeit 05:28 03:52 20:14 00:00 05:12 - - - - 01:22
Minimum _ 12,6 C 11,7 C 61 % 0 lf 1003,7 hPa - - - - 12,6 km/h (3 Bft)
_ Max-Zeit 15:32 15:26 13:12 12:16 23:38 12:18 09:30 07:40 15:26 14:10
Maximum _ 18,7 C 18,9 C 91 % 15 lf 1007,9 hPa 0,2 l/m 2 min 2 min 760 W/m 60,7 km/h
W (7 Bft)
Durchschnitt _ 15,6 C 14,4 C 76 % 1 lf 1005,6 hPa #0,4 l/m #3:26 h #1:02 h 199 W/m 26,7 km/h (4 Bft)
© 2015 W. Hausmann